<?xml version="1.0" encoding="UTF-8" standalone="no" ?>
<gpx xmlns="http://www.topografix.com/GPX/1/1" xmlns:xsi="http://www.w3.org/2001/XMLSchema-instance" xsi:schemaLocation="http://www.topografix.com/GPX/1/1 http://www.topografix.com/GPX/1/1/gpx.xsd" version="1.1" creator="VisuGPX - https://www.visugpx.com">
  <metadata>
    <name>etang-du-moulin-neuf-gpsies-com</name>
  </metadata>
  <trk>
    <name><![CDATA[2019-08-12-17-36-12 on GPSies.com]]></name>
    <extensions>
      <line xmlns="http://www.topografix.com/GPX/gpx_style/0/2">
        <color>0000FF</color>
        <width>4</width>
      </line>
    </extensions>
    <trkseg>
      <trkpt lat="47.88562" lon="-4.23703">
        <ele>24</ele>
        <time>2019-08-12T17:36:12Z</time>
      </trkpt>
      <trkpt lat="47.88561" lon="-4.23709">
        <ele>23</ele>
        <time>2019-08-12T17:36:17Z</time>
      </trkpt>
      <trkpt lat="47.8856" lon="-4.23716">
        <ele>22</ele>
        <time>2019-08-12T17:36:19Z</time>
      </trkpt>
      <trkpt lat="47.88561" lon="-4.23724">
        <ele>22</ele>
        <time>2019-08-12T17:36:22Z</time>
      </trkpt>
      <trkpt lat="47.88564" lon="-4.23729">
        <ele>21</ele>
        <time>2019-08-12T17:36:26Z</time>
      </trkpt>
      <trkpt lat="47.88565" lon="-4.23733">
        <ele>20</ele>
        <time>2019-08-12T17:36:27Z</time>
      </trkpt>
      <trkpt lat="47.88567" lon="-4.23739">
        <ele>20</ele>
        <time>2019-08-12T17:36:28Z</time>
      </trkpt>
      <trkpt lat="47.88569" lon="-4.23747">
        <ele>19</ele>
        <time>2019-08-12T17:36:29Z</time>
      </trkpt>
      <trkpt lat="47.88573" lon="-4.23766">
        <ele>18</ele>
        <time>2019-08-12T17:36:31Z</time>
      </trkpt>
      <trkpt lat="47.88578" lon="-4.23782">
        <ele>16</ele>
        <time>2019-08-12T17:36:33Z</time>
      </trkpt>
      <trkpt lat="47.88584" lon="-4.23787">
        <ele>15</ele>
        <time>2019-08-12T17:36:35Z</time>
      </trkpt>
      <trkpt lat="47.88587" lon="-4.2379">
        <ele>14</ele>
        <time>2019-08-12T17:36:37Z</time>
      </trkpt>
      <trkpt lat="47.8859" lon="-4.23792">
        <ele>13</ele>
        <time>2019-08-12T17:36:39Z</time>
      </trkpt>
      <trkpt lat="47.88591" lon="-4.23794">
        <ele>12</ele>
        <time>2019-08-12T17:36:40Z</time>
      </trkpt>
      <trkpt lat="47.88592" lon="-4.23799">
        <ele>12</ele>
        <time>2019-08-12T17:36:42Z</time>
      </trkpt>
      <trkpt lat="47.88593" lon="-4.23804">
        <ele>11</ele>
        <time>2019-08-12T17:36:44Z</time>
      </trkpt>
      <trkpt lat="47.88594" lon="-4.23806">
        <ele>11</ele>
        <time>2019-08-12T17:36:45Z</time>
      </trkpt>
      <trkpt lat="47.88596" lon="-4.23811">
        <ele>11</ele>
        <time>2019-08-12T17:36:48Z</time>
      </trkpt>
      <trkpt lat="47.886" lon="-4.23819">
        <ele>10</ele>
        <time>2019-08-12T17:36:51Z</time>
      </trkpt>
      <trkpt lat="47.88601" lon="-4.23826">
        <ele>9</ele>
        <time>2019-08-12T17:36:53Z</time>
      </trkpt>
      <trkpt lat="47.88608" lon="-4.23838">
        <ele>9</ele>
        <time>2019-08-12T17:36:58Z</time>
      </trkpt>
      <trkpt lat="47.88619" lon="-4.23852">
        <ele>8</ele>
        <time>2019-08-12T17:37:04Z</time>
      </trkpt>
      <trkpt lat="47.88621" lon="-4.23855">
        <ele>8</ele>
        <time>2019-08-12T17:37:05Z</time>
      </trkpt>
      <trkpt lat="47.88628" lon="-4.2386">
        <ele>7</ele>
        <time>2019-08-12T17:37:07Z</time>
      </trkpt>
      <trkpt lat="47.88641" lon="-4.23867">
        <ele>6</ele>
        <time>2019-08-12T17:37:10Z</time>
      </trkpt>
      <trkpt lat="47.8867" lon="-4.23882">
        <ele>6</ele>
        <time>2019-08-12T17:37:18Z</time>
      </trkpt>
      <trkpt lat="47.88686" lon="-4.23897">
        <ele>6</ele>
        <time>2019-08-12T17:37:25Z</time>
      </trkpt>
      <trkpt lat="47.88692" lon="-4.23906">
        <ele>6</ele>
        <time>2019-08-12T17:37:28Z</time>
      </trkpt>
      <trkpt lat="47.88695" lon="-4.23913">
        <ele>5</ele>
        <time>2019-08-12T17:37:30Z</time>
      </trkpt>
      <trkpt lat="47.88701" lon="-4.23928">
        <ele>7</ele>
        <time>2019-08-12T17:37:34Z</time>
      </trkpt>
      <trkpt lat="47.88702" lon="-4.23931">
        <ele>8</ele>
        <time>2019-08-12T17:37:35Z</time>
      </trkpt>
      <trkpt lat="47.88705" lon="-4.23941">
        <ele>10</ele>
        <time>2019-08-12T17:37:37Z</time>
      </trkpt>
      <trkpt lat="47.88706" lon="-4.23945">
        <ele>10</ele>
        <time>2019-08-12T17:37:38Z</time>
      </trkpt>
      <trkpt lat="47.88711" lon="-4.23957">
        <ele>11</ele>
        <time>2019-08-12T17:37:41Z</time>
      </trkpt>
      <trkpt lat="47.88713" lon="-4.23969">
        <ele>12</ele>
        <time>2019-08-12T17:37:44Z</time>
      </trkpt>
      <trkpt lat="47.88713" lon="-4.23974">
        <ele>12</ele>
        <time>2019-08-12T17:37:45Z</time>
      </trkpt>
      <trkpt lat="47.88714" lon="-4.23978">
        <ele>13</ele>
        <time>2019-08-12T17:37:46Z</time>
      </trkpt>
      <trkpt lat="47.88713" lon="-4.23987">
        <ele>14</ele>
        <time>2019-08-12T17:37:48Z</time>
      </trkpt>
      <trkpt lat="47.88709" lon="-4.24003">
        <ele>15</ele>
        <time>2019-08-12T17:37:52Z</time>
      </trkpt>
      <trkpt lat="47.88708" lon="-4.24007">
        <ele>15</ele>
        <time>2019-08-12T17:37:53Z</time>
      </trkpt>
      <trkpt lat="47.88703" lon="-4.2403">
        <ele>16</ele>
        <time>2019-08-12T17:37:58Z</time>
      </trkpt>
      <trkpt lat="47.88698" lon="-4.24044">
        <ele>17</ele>
        <time>2019-08-12T17:38:01Z</time>
      </trkpt>
      <trkpt lat="47.88686" lon="-4.2408">
        <ele>17</ele>
        <time>2019-08-12T17:38:09Z</time>
      </trkpt>
      <trkpt lat="47.88678" lon="-4.24115">
        <ele>17</ele>
        <time>2019-08-12T17:38:17Z</time>
      </trkpt>
      <trkpt lat="47.88673" lon="-4.24147">
        <ele>17</ele>
        <time>2019-08-12T17:38:24Z</time>
      </trkpt>
      <trkpt lat="47.88672" lon="-4.24161">
        <ele>16</ele>
        <time>2019-08-12T17:38:27Z</time>
      </trkpt>
      <trkpt lat="47.88671" lon="-4.24182">
        <ele>16</ele>
        <time>2019-08-12T17:38:31Z</time>
      </trkpt>
      <trkpt lat="47.88674" lon="-4.24199">
        <ele>16</ele>
        <time>2019-08-12T17:38:34Z</time>
      </trkpt>
      <trkpt lat="47.88677" lon="-4.24205">
        <ele>16</ele>
        <time>2019-08-12T17:38:35Z</time>
      </trkpt>
      <trkpt lat="47.88686" lon="-4.2422">
        <ele>16</ele>
        <time>2019-08-12T17:38:38Z</time>
      </trkpt>
      <trkpt lat="47.88695" lon="-4.24221">
        <ele>16</ele>
        <time>2019-08-12T17:38:40Z</time>
      </trkpt>
      <trkpt lat="47.88709" lon="-4.24211">
        <ele>15</ele>
        <time>2019-08-12T17:38:43Z</time>
      </trkpt>
      <trkpt lat="47.88736" lon="-4.24196">
        <ele>15</ele>
        <time>2019-08-12T17:38:50Z</time>
      </trkpt>
      <trkpt lat="47.88756" lon="-4.24189">
        <ele>16</ele>
        <time>2019-08-12T17:38:56Z</time>
      </trkpt>
      <trkpt lat="47.88759" lon="-4.24189">
        <ele>16</ele>
        <time>2019-08-12T17:38:57Z</time>
      </trkpt>
      <trkpt lat="47.88787" lon="-4.24182">
        <ele>16</ele>
        <time>2019-08-12T17:39:06Z</time>
      </trkpt>
      <trkpt lat="47.88813" lon="-4.24173">
        <ele>17</ele>
        <time>2019-08-12T17:39:15Z</time>
      </trkpt>
      <trkpt lat="47.88839" lon="-4.24163">
        <ele>16</ele>
        <time>2019-08-12T17:39:24Z</time>
      </trkpt>
      <trkpt lat="47.88861" lon="-4.24158">
        <ele>16</ele>
        <time>2019-08-12T17:39:32Z</time>
      </trkpt>
      <trkpt lat="47.88874" lon="-4.2416">
        <ele>16</ele>
        <time>2019-08-12T17:39:37Z</time>
      </trkpt>
      <trkpt lat="47.88889" lon="-4.24174">
        <ele>16</ele>
        <time>2019-08-12T17:39:43Z</time>
      </trkpt>
      <trkpt lat="47.88904" lon="-4.24203">
        <ele>16</ele>
        <time>2019-08-12T17:39:51Z</time>
      </trkpt>
      <trkpt lat="47.88916" lon="-4.24225">
        <ele>16</ele>
        <time>2019-08-12T17:39:57Z</time>
      </trkpt>
      <trkpt lat="47.88929" lon="-4.2424">
        <ele>16</ele>
        <time>2019-08-12T17:40:02Z</time>
      </trkpt>
      <trkpt lat="47.88943" lon="-4.2425">
        <ele>15</ele>
        <time>2019-08-12T17:40:06Z</time>
      </trkpt>
      <trkpt lat="47.88951" lon="-4.24253">
        <ele>15</ele>
        <time>2019-08-12T17:40:08Z</time>
      </trkpt>
      <trkpt lat="47.88974" lon="-4.24244">
        <ele>14</ele>
        <time>2019-08-12T17:40:13Z</time>
      </trkpt>
      <trkpt lat="47.88977" lon="-4.24226">
        <ele>13</ele>
        <time>2019-08-12T17:40:16Z</time>
      </trkpt>
      <trkpt lat="47.88978" lon="-4.2422">
        <ele>13</ele>
        <time>2019-08-12T17:40:17Z</time>
      </trkpt>
      <trkpt lat="47.88981" lon="-4.24188">
        <ele>13</ele>
        <time>2019-08-12T17:40:22Z</time>
      </trkpt>
      <trkpt lat="47.88983" lon="-4.2417">
        <ele>12</ele>
        <time>2019-08-12T17:40:25Z</time>
      </trkpt>
      <trkpt lat="47.88991" lon="-4.24127">
        <ele>13</ele>
        <time>2019-08-12T17:40:33Z</time>
      </trkpt>
      <trkpt lat="47.89" lon="-4.24099">
        <ele>14</ele>
        <time>2019-08-12T17:40:39Z</time>
      </trkpt>
      <trkpt lat="47.89003" lon="-4.2409">
        <ele>14</ele>
        <time>2019-08-12T17:40:41Z</time>
      </trkpt>
      <trkpt lat="47.89008" lon="-4.24078">
        <ele>15</ele>
        <time>2019-08-12T17:40:45Z</time>
      </trkpt>
      <trkpt lat="47.8901" lon="-4.24078">
        <ele>15</ele>
        <time>2019-08-12T17:40:46Z</time>
      </trkpt>
      <trkpt lat="47.89015" lon="-4.24079">
        <ele>15</ele>
        <time>2019-08-12T17:40:49Z</time>
      </trkpt>
      <trkpt lat="47.89017" lon="-4.24079">
        <ele>15</ele>
        <time>2019-08-12T17:40:50Z</time>
      </trkpt>
      <trkpt lat="47.89021" lon="-4.24079">
        <ele>15</ele>
        <time>2019-08-12T17:40:52Z</time>
      </trkpt>
      <trkpt lat="47.89029" lon="-4.24082">
        <ele>15</ele>
        <time>2019-08-12T17:40:56Z</time>
      </trkpt>
      <trkpt lat="47.89044" lon="-4.24083">
        <ele>15</ele>
        <time>2019-08-12T17:41:03Z</time>
      </trkpt>
      <trkpt lat="47.89053" lon="-4.24084">
        <ele>15</ele>
        <time>2019-08-12T17:41:09Z</time>
      </trkpt>
      <trkpt lat="47.89063" lon="-4.24086">
        <ele>14</ele>
        <time>2019-08-12T17:41:13Z</time>
      </trkpt>
      <trkpt lat="47.89066" lon="-4.24086">
        <ele>13</ele>
        <time>2019-08-12T17:41:14Z</time>
      </trkpt>
      <trkpt lat="47.89073" lon="-4.24086">
        <ele>13</ele>
        <time>2019-08-12T17:41:17Z</time>
      </trkpt>
      <trkpt lat="47.89075" lon="-4.24086">
        <ele>12</ele>
        <time>2019-08-12T17:41:18Z</time>
      </trkpt>
      <trkpt lat="47.89088" lon="-4.24089">
        <ele>12</ele>
        <time>2019-08-12T17:41:24Z</time>
      </trkpt>
      <trkpt lat="47.89111" lon="-4.24096">
        <ele>11</ele>
        <time>2019-08-12T17:41:31Z</time>
      </trkpt>
      <trkpt lat="47.89126" lon="-4.24104">
        <ele>10</ele>
        <time>2019-08-12T17:41:36Z</time>
      </trkpt>
      <trkpt lat="47.89146" lon="-4.24113">
        <ele>9</ele>
        <time>2019-08-12T17:41:42Z</time>
      </trkpt>
      <trkpt lat="47.89155" lon="-4.24118">
        <ele>9</ele>
        <time>2019-08-12T17:41:46Z</time>
      </trkpt>
      <trkpt lat="47.89159" lon="-4.24122">
        <ele>8</ele>
        <time>2019-08-12T17:41:48Z</time>
      </trkpt>
      <trkpt lat="47.89162" lon="-4.24123">
        <ele>8</ele>
        <time>2019-08-12T17:41:49Z</time>
      </trkpt>
      <trkpt lat="47.89168" lon="-4.24126">
        <ele>7</ele>
        <time>2019-08-12T17:41:51Z</time>
      </trkpt>
      <trkpt lat="47.89186" lon="-4.24134">
        <ele>6</ele>
        <time>2019-08-12T17:41:57Z</time>
      </trkpt>
      <trkpt lat="47.89206" lon="-4.24142">
        <ele>6</ele>
        <time>2019-08-12T17:42:02Z</time>
      </trkpt>
      <trkpt lat="47.89228" lon="-4.24161">
        <ele>7</ele>
        <time>2019-08-12T17:42:09Z</time>
      </trkpt>
      <trkpt lat="47.89231" lon="-4.24165">
        <ele>8</ele>
        <time>2019-08-12T17:42:10Z</time>
      </trkpt>
      <trkpt lat="47.89242" lon="-4.24181">
        <ele>9</ele>
        <time>2019-08-12T17:42:14Z</time>
      </trkpt>
      <trkpt lat="47.89244" lon="-4.24185">
        <ele>9</ele>
        <time>2019-08-12T17:42:15Z</time>
      </trkpt>
      <trkpt lat="47.89256" lon="-4.24197">
        <ele>9</ele>
        <time>2019-08-12T17:42:20Z</time>
      </trkpt>
      <trkpt lat="47.89265" lon="-4.24206">
        <ele>10</ele>
        <time>2019-08-12T17:42:24Z</time>
      </trkpt>
      <trkpt lat="47.89274" lon="-4.24215">
        <ele>11</ele>
        <time>2019-08-12T17:42:28Z</time>
      </trkpt>
      <trkpt lat="47.89277" lon="-4.24218">
        <ele>11</ele>
        <time>2019-08-12T17:42:29Z</time>
      </trkpt>
      <trkpt lat="47.8929" lon="-4.24227">
        <ele>11</ele>
        <time>2019-08-12T17:42:35Z</time>
      </trkpt>
      <trkpt lat="47.89306" lon="-4.24238">
        <ele>10</ele>
        <time>2019-08-12T17:42:41Z</time>
      </trkpt>
      <trkpt lat="47.89327" lon="-4.2425">
        <ele>10</ele>
        <time>2019-08-12T17:42:48Z</time>
      </trkpt>
      <trkpt lat="47.89343" lon="-4.2425">
        <ele>10</ele>
        <time>2019-08-12T17:42:53Z</time>
      </trkpt>
      <trkpt lat="47.89362" lon="-4.2424">
        <ele>10</ele>
        <time>2019-08-12T17:42:59Z</time>
      </trkpt>
      <trkpt lat="47.89384" lon="-4.24227">
        <ele>10</ele>
        <time>2019-08-12T17:43:06Z</time>
      </trkpt>
      <trkpt lat="47.894" lon="-4.24221">
        <ele>10</ele>
        <time>2019-08-12T17:43:11Z</time>
      </trkpt>
      <trkpt lat="47.89414" lon="-4.24229">
        <ele>11</ele>
        <time>2019-08-12T17:43:16Z</time>
      </trkpt>
      <trkpt lat="47.8943" lon="-4.24241">
        <ele>11</ele>
        <time>2019-08-12T17:43:22Z</time>
      </trkpt>
      <trkpt lat="47.89446" lon="-4.24262">
        <ele>11</ele>
        <time>2019-08-12T17:43:29Z</time>
      </trkpt>
      <trkpt lat="47.8945" lon="-4.24276">
        <ele>10</ele>
        <time>2019-08-12T17:43:34Z</time>
      </trkpt>
      <trkpt lat="47.89454" lon="-4.2429">
        <ele>10</ele>
        <time>2019-08-12T17:43:37Z</time>
      </trkpt>
      <trkpt lat="47.89454" lon="-4.24295">
        <ele>10</ele>
        <time>2019-08-12T17:43:38Z</time>
      </trkpt>
      <trkpt lat="47.89455" lon="-4.24321">
        <ele>9</ele>
        <time>2019-08-12T17:43:43Z</time>
      </trkpt>
      <trkpt lat="47.89455" lon="-4.24325">
        <ele>9</ele>
        <time>2019-08-12T17:43:44Z</time>
      </trkpt>
      <trkpt lat="47.89452" lon="-4.24341">
        <ele>8</ele>
        <time>2019-08-12T17:43:48Z</time>
      </trkpt>
      <trkpt lat="47.89445" lon="-4.24366">
        <ele>9</ele>
        <time>2019-08-12T17:43:54Z</time>
      </trkpt>
      <trkpt lat="47.89441" lon="-4.24388">
        <ele>8</ele>
        <time>2019-08-12T17:44:00Z</time>
      </trkpt>
      <trkpt lat="47.89441" lon="-4.24392">
        <ele>8</ele>
        <time>2019-08-12T17:44:01Z</time>
      </trkpt>
      <trkpt lat="47.89436" lon="-4.24421">
        <ele>7</ele>
        <time>2019-08-12T17:44:07Z</time>
      </trkpt>
      <trkpt lat="47.89436" lon="-4.2443">
        <ele>7</ele>
        <time>2019-08-12T17:44:09Z</time>
      </trkpt>
      <trkpt lat="47.89435" lon="-4.24449">
        <ele>6</ele>
        <time>2019-08-12T17:44:13Z</time>
      </trkpt>
      <trkpt lat="47.89435" lon="-4.24462">
        <ele>6</ele>
        <time>2019-08-12T17:44:16Z</time>
      </trkpt>
      <trkpt lat="47.89435" lon="-4.24472">
        <ele>5</ele>
        <time>2019-08-12T17:44:18Z</time>
      </trkpt>
      <trkpt lat="47.89435" lon="-4.24478">
        <ele>4</ele>
        <time>2019-08-12T17:44:19Z</time>
      </trkpt>
      <trkpt lat="47.89435" lon="-4.24486">
        <ele>3</ele>
        <time>2019-08-12T17:44:21Z</time>
      </trkpt>
      <trkpt lat="47.89436" lon="-4.24494">
        <ele>2</ele>
        <time>2019-08-12T17:44:23Z</time>
      </trkpt>
      <trkpt lat="47.89437" lon="-4.24507">
        <ele>1</ele>
        <time>2019-08-12T17:44:26Z</time>
      </trkpt>
      <trkpt lat="47.89437" lon="-4.24519">
        <ele>13.8</ele>
        <time>2019-08-12T17:44:28Z</time>
      </trkpt>
      <trkpt lat="47.89436" lon="-4.24554">
        <ele>1</ele>
        <time>2019-08-12T17:44:34Z</time>
      </trkpt>
      <trkpt lat="47.89434" lon="-4.24573">
        <ele>2</ele>
        <time>2019-08-12T17:44:38Z</time>
      </trkpt>
      <trkpt lat="47.89433" lon="-4.24582">
        <ele>4</ele>
        <time>2019-08-12T17:44:40Z</time>
      </trkpt>
      <trkpt lat="47.89432" lon="-4.24591">
        <ele>4</ele>
        <time>2019-08-12T17:44:42Z</time>
      </trkpt>
      <trkpt lat="47.89432" lon="-4.24601">
        <ele>5</ele>
        <time>2019-08-12T17:44:44Z</time>
      </trkpt>
      <trkpt lat="47.89433" lon="-4.24615">
        <ele>6</ele>
        <time>2019-08-12T17:44:47Z</time>
      </trkpt>
      <trkpt lat="47.89433" lon="-4.24627">
        <ele>7</ele>
        <time>2019-08-12T17:44:50Z</time>
      </trkpt>
      <trkpt lat="47.89434" lon="-4.24648">
        <ele>7</ele>
        <time>2019-08-12T17:44:56Z</time>
      </trkpt>
      <trkpt lat="47.89439" lon="-4.24669">
        <ele>7</ele>
        <time>2019-08-12T17:45:02Z</time>
      </trkpt>
      <trkpt lat="47.89444" lon="-4.24697">
        <ele>7</ele>
        <time>2019-08-12T17:45:08Z</time>
      </trkpt>
      <trkpt lat="47.89448" lon="-4.24714">
        <ele>6</ele>
        <time>2019-08-12T17:45:12Z</time>
      </trkpt>
      <trkpt lat="47.8945" lon="-4.24717">
        <ele>6</ele>
        <time>2019-08-12T17:45:13Z</time>
      </trkpt>
      <trkpt lat="47.89454" lon="-4.2473">
        <ele>7</ele>
        <time>2019-08-12T17:45:16Z</time>
      </trkpt>
      <trkpt lat="47.8946" lon="-4.24741">
        <ele>7</ele>
        <time>2019-08-12T17:45:19Z</time>
      </trkpt>
      <trkpt lat="47.89471" lon="-4.24759">
        <ele>7</ele>
        <time>2019-08-12T17:45:25Z</time>
      </trkpt>
      <trkpt lat="47.89473" lon="-4.24762">
        <ele>7</ele>
        <time>2019-08-12T17:45:26Z</time>
      </trkpt>
      <trkpt lat="47.89485" lon="-4.24778">
        <ele>8</ele>
        <time>2019-08-12T17:45:33Z</time>
      </trkpt>
      <trkpt lat="47.89494" lon="-4.24788">
        <ele>9</ele>
        <time>2019-08-12T17:45:37Z</time>
      </trkpt>
      <trkpt lat="47.89505" lon="-4.24797">
        <ele>10</ele>
        <time>2019-08-12T17:45:42Z</time>
      </trkpt>
      <trkpt lat="47.89515" lon="-4.24799">
        <ele>10</ele>
        <time>2019-08-12T17:45:48Z</time>
      </trkpt>
      <trkpt lat="47.89516" lon="-4.24798">
        <ele>11</ele>
        <time>2019-08-12T17:45:49Z</time>
      </trkpt>
      <trkpt lat="47.89522" lon="-4.24793">
        <ele>11</ele>
        <time>2019-08-12T17:45:53Z</time>
      </trkpt>
      <trkpt lat="47.89535" lon="-4.24781">
        <ele>11</ele>
        <time>2019-08-12T17:46:00Z</time>
      </trkpt>
      <trkpt lat="47.89545" lon="-4.24771">
        <ele>12</ele>
        <time>2019-08-12T17:46:05Z</time>
      </trkpt>
      <trkpt lat="47.89551" lon="-4.24765">
        <ele>12</ele>
        <time>2019-08-12T17:46:08Z</time>
      </trkpt>
      <trkpt lat="47.89556" lon="-4.2476">
        <ele>13</ele>
        <time>2019-08-12T17:46:11Z</time>
      </trkpt>
      <trkpt lat="47.89558" lon="-4.24758">
        <ele>13</ele>
        <time>2019-08-12T17:46:12Z</time>
      </trkpt>
      <trkpt lat="47.89559" lon="-4.24757">
        <ele>13</ele>
        <time>2019-08-12T17:46:13Z</time>
      </trkpt>
      <trkpt lat="47.89567" lon="-4.24748">
        <ele>13</ele>
        <time>2019-08-12T17:46:18Z</time>
      </trkpt>
      <trkpt lat="47.89581" lon="-4.24731">
        <ele>13</ele>
        <time>2019-08-12T17:46:25Z</time>
      </trkpt>
      <trkpt lat="47.89591" lon="-4.24713">
        <ele>12</ele>
        <time>2019-08-12T17:46:32Z</time>
      </trkpt>
      <trkpt lat="47.89595" lon="-4.24703">
        <ele>11</ele>
        <time>2019-08-12T17:46:35Z</time>
      </trkpt>
      <trkpt lat="47.89599" lon="-4.24695">
        <ele>9</ele>
        <time>2019-08-12T17:46:38Z</time>
      </trkpt>
      <trkpt lat="47.89601" lon="-4.24689">
        <ele>9</ele>
        <time>2019-08-12T17:46:40Z</time>
      </trkpt>
      <trkpt lat="47.89602" lon="-4.24686">
        <ele>8</ele>
        <time>2019-08-12T17:46:41Z</time>
      </trkpt>
      <trkpt lat="47.89606" lon="-4.24678">
        <ele>7</ele>
        <time>2019-08-12T17:46:44Z</time>
      </trkpt>
      <trkpt lat="47.8961" lon="-4.24666">
        <ele>5</ele>
        <time>2019-08-12T17:46:48Z</time>
      </trkpt>
      <trkpt lat="47.89613" lon="-4.24655">
        <ele>4</ele>
        <time>2019-08-12T17:46:51Z</time>
      </trkpt>
      <trkpt lat="47.89615" lon="-4.2465">
        <ele>4</ele>
        <time>2019-08-12T17:46:53Z</time>
      </trkpt>
      <trkpt lat="47.89618" lon="-4.24642">
        <ele>3</ele>
        <time>2019-08-12T17:46:55Z</time>
      </trkpt>
      <trkpt lat="47.89622" lon="-4.24632">
        <ele>4</ele>
        <time>2019-08-12T17:46:57Z</time>
      </trkpt>
      <trkpt lat="47.89626" lon="-4.24623">
        <ele>4</ele>
        <time>2019-08-12T17:46:59Z</time>
      </trkpt>
      <trkpt lat="47.89632" lon="-4.24611">
        <ele>6</ele>
        <time>2019-08-12T17:47:02Z</time>
      </trkpt>
      <trkpt lat="47.89634" lon="-4.24604">
        <ele>7</ele>
        <time>2019-08-12T17:47:04Z</time>
      </trkpt>
      <trkpt lat="47.89639" lon="-4.24593">
        <ele>9</ele>
        <time>2019-08-12T17:47:08Z</time>
      </trkpt>
      <trkpt lat="47.89642" lon="-4.24587">
        <ele>9</ele>
        <time>2019-08-12T17:47:10Z</time>
      </trkpt>
      <trkpt lat="47.89644" lon="-4.24584">
        <ele>10</ele>
        <time>2019-08-12T17:47:11Z</time>
      </trkpt>
      <trkpt lat="47.89652" lon="-4.24572">
        <ele>10</ele>
        <time>2019-08-12T17:47:15Z</time>
      </trkpt>
      <trkpt lat="47.89664" lon="-4.24559">
        <ele>11</ele>
        <time>2019-08-12T17:47:21Z</time>
      </trkpt>
      <trkpt lat="47.89669" lon="-4.24558">
        <ele>11</ele>
        <time>2019-08-12T17:47:23Z</time>
      </trkpt>
      <trkpt lat="47.89682" lon="-4.24555">
        <ele>11</ele>
        <time>2019-08-12T17:47:29Z</time>
      </trkpt>
      <trkpt lat="47.89686" lon="-4.24555">
        <ele>11</ele>
        <time>2019-08-12T17:47:31Z</time>
      </trkpt>
      <trkpt lat="47.89695" lon="-4.24555">
        <ele>11</ele>
        <time>2019-08-12T17:47:34Z</time>
      </trkpt>
      <trkpt lat="47.89702" lon="-4.24558">
        <ele>11</ele>
        <time>2019-08-12T17:47:37Z</time>
      </trkpt>
      <trkpt lat="47.89709" lon="-4.24564">
        <ele>10</ele>
        <time>2019-08-12T17:47:41Z</time>
      </trkpt>
      <trkpt lat="47.8971" lon="-4.24565">
        <ele>10</ele>
        <time>2019-08-12T17:47:42Z</time>
      </trkpt>
      <trkpt lat="47.89724" lon="-4.24569">
        <ele>9</ele>
        <time>2019-08-12T17:47:47Z</time>
      </trkpt>
      <trkpt lat="47.89743" lon="-4.24588">
        <ele>7</ele>
        <time>2019-08-12T17:48:00Z</time>
      </trkpt>
      <trkpt lat="47.89744" lon="-4.24591">
        <ele>7</ele>
        <time>2019-08-12T17:48:01Z</time>
      </trkpt>
      <trkpt lat="47.89745" lon="-4.24594">
        <ele>7</ele>
        <time>2019-08-12T17:48:02Z</time>
      </trkpt>
      <trkpt lat="47.89747" lon="-4.24597">
        <ele>6</ele>
        <time>2019-08-12T17:48:03Z</time>
      </trkpt>
      <trkpt lat="47.89752" lon="-4.24603">
        <ele>6</ele>
        <time>2019-08-12T17:48:05Z</time>
      </trkpt>
      <trkpt lat="47.89754" lon="-4.24606">
        <ele>5</ele>
        <time>2019-08-12T17:48:06Z</time>
      </trkpt>
      <trkpt lat="47.89757" lon="-4.24609">
        <ele>5</ele>
        <time>2019-08-12T17:48:07Z</time>
      </trkpt>
      <trkpt lat="47.89769" lon="-4.2462">
        <ele>5</ele>
        <time>2019-08-12T17:48:11Z</time>
      </trkpt>
      <trkpt lat="47.89783" lon="-4.24631">
        <ele>4</ele>
        <time>2019-08-12T17:48:16Z</time>
      </trkpt>
      <trkpt lat="47.89794" lon="-4.24646">
        <ele>3</ele>
        <time>2019-08-12T17:48:21Z</time>
      </trkpt>
      <trkpt lat="47.89796" lon="-4.24649">
        <ele>2</ele>
        <time>2019-08-12T17:48:22Z</time>
      </trkpt>
      <trkpt lat="47.89798" lon="-4.24653">
        <ele>1</ele>
        <time>2019-08-12T17:48:23Z</time>
      </trkpt>
      <trkpt lat="47.89801" lon="-4.24656">
        <ele>1</ele>
        <time>2019-08-12T17:48:24Z</time>
      </trkpt>
      <trkpt lat="47.89804" lon="-4.24659">
        <ele>17</ele>
        <time>2019-08-12T17:48:25Z</time>
      </trkpt>
      <trkpt lat="47.89808" lon="-4.24663">
        <ele>-1</ele>
        <time>2019-08-12T17:48:26Z</time>
      </trkpt>
      <trkpt lat="47.89811" lon="-4.24666">
        <ele>-2</ele>
        <time>2019-08-12T17:48:27Z</time>
      </trkpt>
      <trkpt lat="47.89818" lon="-4.24672">
        <ele>-3</ele>
        <time>2019-08-12T17:48:29Z</time>
      </trkpt>
      <trkpt lat="47.8982" lon="-4.24675">
        <ele>-3</ele>
        <time>2019-08-12T17:48:30Z</time>
      </trkpt>
      <trkpt lat="47.89823" lon="-4.24679">
        <ele>-4</ele>
        <time>2019-08-12T17:48:31Z</time>
      </trkpt>
      <trkpt lat="47.89823" lon="-4.24683">
        <ele>-5</ele>
        <time>2019-08-12T17:48:32Z</time>
      </trkpt>
      <trkpt lat="47.89826" lon="-4.24686">
        <ele>-6</ele>
        <time>2019-08-12T17:48:33Z</time>
      </trkpt>
      <trkpt lat="47.89828" lon="-4.24692">
        <ele>-7</ele>
        <time>2019-08-12T17:48:35Z</time>
      </trkpt>
      <trkpt lat="47.89832" lon="-4.24699">
        <ele>-8</ele>
        <time>2019-08-12T17:48:37Z</time>
      </trkpt>
      <trkpt lat="47.89834" lon="-4.24702">
        <ele>-9</ele>
        <time>2019-08-12T17:48:38Z</time>
      </trkpt>
      <trkpt lat="47.89836" lon="-4.24705">
        <ele>-10</ele>
        <time>2019-08-12T17:48:39Z</time>
      </trkpt>
      <trkpt lat="47.89838" lon="-4.24714">
        <ele>-11</ele>
        <time>2019-08-12T17:48:41Z</time>
      </trkpt>
      <trkpt lat="47.8984" lon="-4.24719">
        <ele>-11</ele>
        <time>2019-08-12T17:48:42Z</time>
      </trkpt>
      <trkpt lat="47.89845" lon="-4.24725">
        <ele>-12</ele>
        <time>2019-08-12T17:48:44Z</time>
      </trkpt>
      <trkpt lat="47.89848" lon="-4.24731">
        <ele>-13</ele>
        <time>2019-08-12T17:48:46Z</time>
      </trkpt>
      <trkpt lat="47.8985" lon="-4.24738">
        <ele>-15</ele>
        <time>2019-08-12T17:48:48Z</time>
      </trkpt>
      <trkpt lat="47.89854" lon="-4.24743">
        <ele>-17</ele>
        <time>2019-08-12T17:48:50Z</time>
      </trkpt>
      <trkpt lat="47.89856" lon="-4.24746">
        <ele>-17</ele>
        <time>2019-08-12T17:48:51Z</time>
      </trkpt>
      <trkpt lat="47.89857" lon="-4.24753">
        <ele>-18</ele>
        <time>2019-08-12T17:48:53Z</time>
      </trkpt>
      <trkpt lat="47.89858" lon="-4.24759">
        <ele>-19</ele>
        <time>2019-08-12T17:48:55Z</time>
      </trkpt>
      <trkpt lat="47.89859" lon="-4.24762">
        <ele>-20</ele>
        <time>2019-08-12T17:48:56Z</time>
      </trkpt>
      <trkpt lat="47.89858" lon="-4.2477">
        <ele>-19</ele>
        <time>2019-08-12T17:48:59Z</time>
      </trkpt>
      <trkpt lat="47.89858" lon="-4.24773">
        <ele>-18</ele>
        <time>2019-08-12T17:49:00Z</time>
      </trkpt>
      <trkpt lat="47.89856" lon="-4.24778">
        <ele>-17</ele>
        <time>2019-08-12T17:49:02Z</time>
      </trkpt>
      <trkpt lat="47.89855" lon="-4.24783">
        <ele>-15</ele>
        <time>2019-08-12T17:49:04Z</time>
      </trkpt>
      <trkpt lat="47.89855" lon="-4.24789">
        <ele>-14</ele>
        <time>2019-08-12T17:49:06Z</time>
      </trkpt>
      <trkpt lat="47.89856" lon="-4.24792">
        <ele>-14</ele>
        <time>2019-08-12T17:49:07Z</time>
      </trkpt>
      <trkpt lat="47.89857" lon="-4.24806">
        <ele>-12</ele>
        <time>2019-08-12T17:49:11Z</time>
      </trkpt>
      <trkpt lat="47.89857" lon="-4.24811">
        <ele>-12</ele>
        <time>2019-08-12T17:49:12Z</time>
      </trkpt>
      <trkpt lat="47.89858" lon="-4.24814">
        <ele>-13</ele>
        <time>2019-08-12T17:49:13Z</time>
      </trkpt>
      <trkpt lat="47.89861" lon="-4.24824">
        <ele>-13</ele>
        <time>2019-08-12T17:49:16Z</time>
      </trkpt>
      <trkpt lat="47.89875" lon="-4.24838">
        <ele>-15</ele>
        <time>2019-08-12T17:51:05Z</time>
      </trkpt>
      <trkpt lat="47.89877" lon="-4.24839">
        <ele>-15</ele>
        <time>2019-08-12T17:51:06Z</time>
      </trkpt>
      <trkpt lat="47.8988" lon="-4.24843">
        <ele>-16</ele>
        <time>2019-08-12T17:51:08Z</time>
      </trkpt>
      <trkpt lat="47.89886" lon="-4.24849">
        <ele>-18</ele>
        <time>2019-08-12T17:51:11Z</time>
      </trkpt>
      <trkpt lat="47.89906" lon="-4.24867">
        <ele>-18</ele>
        <time>2019-08-12T17:51:17Z</time>
      </trkpt>
      <trkpt lat="47.89933" lon="-4.24882">
        <ele>-16</ele>
        <time>2019-08-12T17:51:22Z</time>
      </trkpt>
      <trkpt lat="47.89943" lon="-4.24882">
        <ele>-16</ele>
        <time>2019-08-12T17:51:24Z</time>
      </trkpt>
      <trkpt lat="47.89951" lon="-4.2488">
        <ele>-14</ele>
        <time>2019-08-12T17:51:25Z</time>
      </trkpt>
      <trkpt lat="47.89954" lon="-4.24877">
        <ele>-13</ele>
        <time>2019-08-12T17:51:26Z</time>
      </trkpt>
      <trkpt lat="47.89957" lon="-4.24873">
        <ele>-12</ele>
        <time>2019-08-12T17:51:27Z</time>
      </trkpt>
      <trkpt lat="47.8996" lon="-4.24869">
        <ele>-12</ele>
        <time>2019-08-12T17:51:28Z</time>
      </trkpt>
      <trkpt lat="47.89963" lon="-4.2486">
        <ele>-11</ele>
        <time>2019-08-12T17:51:30Z</time>
      </trkpt>
      <trkpt lat="47.89965" lon="-4.24852">
        <ele>-9</ele>
        <time>2019-08-12T17:51:32Z</time>
      </trkpt>
      <trkpt lat="47.89965" lon="-4.24847">
        <ele>-8</ele>
        <time>2019-08-12T17:51:33Z</time>
      </trkpt>
      <trkpt lat="47.89963" lon="-4.24834">
        <ele>-7</ele>
        <time>2019-08-12T17:51:36Z</time>
      </trkpt>
      <trkpt lat="47.8996" lon="-4.2482">
        <ele>-7</ele>
        <time>2019-08-12T17:51:39Z</time>
      </trkpt>
      <trkpt lat="47.89955" lon="-4.24805">
        <ele>-7</ele>
        <time>2019-08-12T17:51:43Z</time>
      </trkpt>
      <trkpt lat="47.89948" lon="-4.24786">
        <ele>-5</ele>
        <time>2019-08-12T17:51:47Z</time>
      </trkpt>
      <trkpt lat="47.89947" lon="-4.24781">
        <ele>-5</ele>
        <time>2019-08-12T17:51:48Z</time>
      </trkpt>
      <trkpt lat="47.89945" lon="-4.24776">
        <ele>-4</ele>
        <time>2019-08-12T17:51:49Z</time>
      </trkpt>
      <trkpt lat="47.89942" lon="-4.24759">
        <ele>-3</ele>
        <time>2019-08-12T17:51:52Z</time>
      </trkpt>
      <trkpt lat="47.89939" lon="-4.24748">
        <ele>-2</ele>
        <time>2019-08-12T17:51:54Z</time>
      </trkpt>
      <trkpt lat="47.89938" lon="-4.24737">
        <ele>-1</ele>
        <time>2019-08-12T17:51:56Z</time>
      </trkpt>
      <trkpt lat="47.89937" lon="-4.24731">
        <ele>-1</ele>
        <time>2019-08-12T17:51:57Z</time>
      </trkpt>
      <trkpt lat="47.89931" lon="-4.24706">
        <ele>15.4</ele>
        <time>2019-08-12T17:52:02Z</time>
      </trkpt>
      <trkpt lat="47.89931" lon="-4.24701">
        <ele>1</ele>
        <time>2019-08-12T17:52:03Z</time>
      </trkpt>
      <trkpt lat="47.89929" lon="-4.24688">
        <ele>2</ele>
        <time>2019-08-12T17:52:06Z</time>
      </trkpt>
      <trkpt lat="47.89926" lon="-4.24675">
        <ele>4</ele>
        <time>2019-08-12T17:52:09Z</time>
      </trkpt>
      <trkpt lat="47.89924" lon="-4.24667">
        <ele>5</ele>
        <time>2019-08-12T17:52:11Z</time>
      </trkpt>
      <trkpt lat="47.89921" lon="-4.24658">
        <ele>6</ele>
        <time>2019-08-12T17:52:14Z</time>
      </trkpt>
      <trkpt lat="47.8992" lon="-4.24655">
        <ele>7</ele>
        <time>2019-08-12T17:52:15Z</time>
      </trkpt>
      <trkpt lat="47.89916" lon="-4.24651">
        <ele>7</ele>
        <time>2019-08-12T17:52:17Z</time>
      </trkpt>
      <trkpt lat="47.89914" lon="-4.24649">
        <ele>7</ele>
        <time>2019-08-12T17:52:18Z</time>
      </trkpt>
      <trkpt lat="47.8991" lon="-4.24645">
        <ele>8</ele>
        <time>2019-08-12T17:52:20Z</time>
      </trkpt>
      <trkpt lat="47.89904" lon="-4.24639">
        <ele>10</ele>
        <time>2019-08-12T17:52:23Z</time>
      </trkpt>
      <trkpt lat="47.899" lon="-4.24635">
        <ele>11</ele>
        <time>2019-08-12T17:52:25Z</time>
      </trkpt>
      <trkpt lat="47.89898" lon="-4.24633">
        <ele>11</ele>
        <time>2019-08-12T17:52:26Z</time>
      </trkpt>
      <trkpt lat="47.89889" lon="-4.24629">
        <ele>12</ele>
        <time>2019-08-12T17:52:30Z</time>
      </trkpt>
      <trkpt lat="47.89884" lon="-4.24627">
        <ele>12</ele>
        <time>2019-08-12T17:52:32Z</time>
      </trkpt>
      <trkpt lat="47.89873" lon="-4.24615">
        <ele>13</ele>
        <time>2019-08-12T17:52:37Z</time>
      </trkpt>
      <trkpt lat="47.89868" lon="-4.24606">
        <ele>12</ele>
        <time>2019-08-12T17:52:40Z</time>
      </trkpt>
      <trkpt lat="47.89862" lon="-4.24599">
        <ele>11</ele>
        <time>2019-08-12T17:52:43Z</time>
      </trkpt>
      <trkpt lat="47.89851" lon="-4.24581">
        <ele>12</ele>
        <time>2019-08-12T17:52:49Z</time>
      </trkpt>
      <trkpt lat="47.89849" lon="-4.2458">
        <ele>12</ele>
        <time>2019-08-12T17:52:50Z</time>
      </trkpt>
      <trkpt lat="47.89838" lon="-4.24567">
        <ele>12</ele>
        <time>2019-08-12T17:52:56Z</time>
      </trkpt>
      <trkpt lat="47.89828" lon="-4.24556">
        <ele>12</ele>
        <time>2019-08-12T17:53:01Z</time>
      </trkpt>
      <trkpt lat="47.89819" lon="-4.2454">
        <ele>11</ele>
        <time>2019-08-12T17:53:06Z</time>
      </trkpt>
      <trkpt lat="47.89817" lon="-4.24533">
        <ele>11</ele>
        <time>2019-08-12T17:53:08Z</time>
      </trkpt>
      <trkpt lat="47.8981" lon="-4.24499">
        <ele>11</ele>
        <time>2019-08-12T17:53:17Z</time>
      </trkpt>
      <trkpt lat="47.89805" lon="-4.24482">
        <ele>13</ele>
        <time>2019-08-12T17:54:00Z</time>
      </trkpt>
      <trkpt lat="47.89804" lon="-4.24475">
        <ele>13</ele>
        <time>2019-08-12T17:54:03Z</time>
      </trkpt>
      <trkpt lat="47.89798" lon="-4.24452">
        <ele>13</ele>
        <time>2019-08-12T17:54:12Z</time>
      </trkpt>
      <trkpt lat="47.89794" lon="-4.24435">
        <ele>12</ele>
        <time>2019-08-12T17:54:17Z</time>
      </trkpt>
      <trkpt lat="47.89791" lon="-4.2442">
        <ele>12</ele>
        <time>2019-08-12T17:54:22Z</time>
      </trkpt>
      <trkpt lat="47.89784" lon="-4.24397">
        <ele>13</ele>
        <time>2019-08-12T17:54:29Z</time>
      </trkpt>
      <trkpt lat="47.89778" lon="-4.24368">
        <ele>13</ele>
        <time>2019-08-12T17:54:37Z</time>
      </trkpt>
      <trkpt lat="47.89772" lon="-4.24343">
        <ele>13</ele>
        <time>2019-08-12T17:54:44Z</time>
      </trkpt>
      <trkpt lat="47.89769" lon="-4.24331">
        <ele>13</ele>
        <time>2019-08-12T17:54:47Z</time>
      </trkpt>
      <trkpt lat="47.89766" lon="-4.24319">
        <ele>14</ele>
        <time>2019-08-12T17:54:50Z</time>
      </trkpt>
      <trkpt lat="47.89759" lon="-4.2429">
        <ele>14</ele>
        <time>2019-08-12T17:54:58Z</time>
      </trkpt>
      <trkpt lat="47.89753" lon="-4.24266">
        <ele>14</ele>
        <time>2019-08-12T17:55:05Z</time>
      </trkpt>
      <trkpt lat="47.8975" lon="-4.24239">
        <ele>14</ele>
        <time>2019-08-12T17:55:11Z</time>
      </trkpt>
      <trkpt lat="47.8975" lon="-4.24206">
        <ele>14</ele>
        <time>2019-08-12T17:55:19Z</time>
      </trkpt>
      <trkpt lat="47.89752" lon="-4.24175">
        <ele>14</ele>
        <time>2019-08-12T17:55:27Z</time>
      </trkpt>
      <trkpt lat="47.89754" lon="-4.24155">
        <ele>13</ele>
        <time>2019-08-12T17:55:33Z</time>
      </trkpt>
      <trkpt lat="47.8976" lon="-4.24135">
        <ele>12</ele>
        <time>2019-08-12T17:55:40Z</time>
      </trkpt>
      <trkpt lat="47.8976" lon="-4.24133">
        <ele>12</ele>
        <time>2019-08-12T17:55:41Z</time>
      </trkpt>
      <trkpt lat="47.89763" lon="-4.24126">
        <ele>12</ele>
        <time>2019-08-12T17:55:44Z</time>
      </trkpt>
      <trkpt lat="47.89767" lon="-4.24117">
        <ele>12</ele>
        <time>2019-08-12T17:55:48Z</time>
      </trkpt>
      <trkpt lat="47.89769" lon="-4.24114">
        <ele>12</ele>
        <time>2019-08-12T17:55:49Z</time>
      </trkpt>
      <trkpt lat="47.89772" lon="-4.24109">
        <ele>12</ele>
        <time>2019-08-12T17:55:51Z</time>
      </trkpt>
      <trkpt lat="47.89775" lon="-4.24104">
        <ele>11</ele>
        <time>2019-08-12T17:55:53Z</time>
      </trkpt>
      <trkpt lat="47.89782" lon="-4.24097">
        <ele>10</ele>
        <time>2019-08-12T17:55:57Z</time>
      </trkpt>
      <trkpt lat="47.89798" lon="-4.24089">
        <ele>9</ele>
        <time>2019-08-12T17:56:03Z</time>
      </trkpt>
      <trkpt lat="47.89814" lon="-4.24083">
        <ele>10</ele>
        <time>2019-08-12T17:56:09Z</time>
      </trkpt>
      <trkpt lat="47.89832" lon="-4.24079">
        <ele>10</ele>
        <time>2019-08-12T17:56:16Z</time>
      </trkpt>
      <trkpt lat="47.89853" lon="-4.24083">
        <ele>9</ele>
        <time>2019-08-12T17:56:24Z</time>
      </trkpt>
      <trkpt lat="47.89858" lon="-4.24086">
        <ele>9</ele>
        <time>2019-08-12T17:56:26Z</time>
      </trkpt>
      <trkpt lat="47.89871" lon="-4.24093">
        <ele>8</ele>
        <time>2019-08-12T17:56:31Z</time>
      </trkpt>
      <trkpt lat="47.89888" lon="-4.24095">
        <ele>9</ele>
        <time>2019-08-12T17:56:37Z</time>
      </trkpt>
      <trkpt lat="47.89907" lon="-4.24099">
        <ele>9</ele>
        <time>2019-08-12T17:56:43Z</time>
      </trkpt>
      <trkpt lat="47.89923" lon="-4.241">
        <ele>9</ele>
        <time>2019-08-12T17:56:48Z</time>
      </trkpt>
      <trkpt lat="47.89933" lon="-4.241">
        <ele>8</ele>
        <time>2019-08-12T17:56:52Z</time>
      </trkpt>
      <trkpt lat="47.89944" lon="-4.24101">
        <ele>8</ele>
        <time>2019-08-12T17:56:56Z</time>
      </trkpt>
      <trkpt lat="47.89951" lon="-4.24101">
        <ele>8</ele>
        <time>2019-08-12T17:56:58Z</time>
      </trkpt>
      <trkpt lat="47.89961" lon="-4.241">
        <ele>7</ele>
        <time>2019-08-12T17:57:02Z</time>
      </trkpt>
      <trkpt lat="47.89964" lon="-4.241">
        <ele>7</ele>
        <time>2019-08-12T17:57:03Z</time>
      </trkpt>
      <trkpt lat="47.89983" lon="-4.24097">
        <ele>6</ele>
        <time>2019-08-12T17:57:09Z</time>
      </trkpt>
      <trkpt lat="47.90006" lon="-4.24093">
        <ele>8</ele>
        <time>2019-08-12T17:57:16Z</time>
      </trkpt>
      <trkpt lat="47.90009" lon="-4.24092">
        <ele>8</ele>
        <time>2019-08-12T17:57:17Z</time>
      </trkpt>
      <trkpt lat="47.90025" lon="-4.24087">
        <ele>9</ele>
        <time>2019-08-12T17:57:23Z</time>
      </trkpt>
      <trkpt lat="47.90028" lon="-4.24086">
        <ele>9</ele>
        <time>2019-08-12T17:57:24Z</time>
      </trkpt>
      <trkpt lat="47.90044" lon="-4.24082">
        <ele>9</ele>
        <time>2019-08-12T17:57:31Z</time>
      </trkpt>
      <trkpt lat="47.90049" lon="-4.24081">
        <ele>10</ele>
        <time>2019-08-12T17:57:34Z</time>
      </trkpt>
      <trkpt lat="47.90054" lon="-4.24077">
        <ele>11</ele>
        <time>2019-08-12T17:57:38Z</time>
      </trkpt>
      <trkpt lat="47.90061" lon="-4.24075">
        <ele>13</ele>
        <time>2019-08-12T17:59:16Z</time>
      </trkpt>
      <trkpt lat="47.90064" lon="-4.24074">
        <ele>13</ele>
        <time>2019-08-12T17:59:18Z</time>
      </trkpt>
      <trkpt lat="47.9008" lon="-4.2407">
        <ele>13</ele>
        <time>2019-08-12T17:59:27Z</time>
      </trkpt>
      <trkpt lat="47.90101" lon="-4.24062">
        <ele>13</ele>
        <time>2019-08-12T17:59:36Z</time>
      </trkpt>
      <trkpt lat="47.90113" lon="-4.24057">
        <ele>12</ele>
        <time>2019-08-12T17:59:42Z</time>
      </trkpt>
      <trkpt lat="47.90115" lon="-4.24057">
        <ele>12</ele>
        <time>2019-08-12T17:59:43Z</time>
      </trkpt>
      <trkpt lat="47.90125" lon="-4.24054">
        <ele>11</ele>
        <time>2019-08-12T17:59:48Z</time>
      </trkpt>
      <trkpt lat="47.90128" lon="-4.24053">
        <ele>11</ele>
        <time>2019-08-12T17:59:49Z</time>
      </trkpt>
      <trkpt lat="47.90149" lon="-4.24046">
        <ele>10</ele>
        <time>2019-08-12T17:59:57Z</time>
      </trkpt>
      <trkpt lat="47.90154" lon="-4.24042">
        <ele>10</ele>
        <time>2019-08-12T17:59:59Z</time>
      </trkpt>
      <trkpt lat="47.90168" lon="-4.24029">
        <ele>9</ele>
        <time>2019-08-12T18:00:04Z</time>
      </trkpt>
      <trkpt lat="47.90177" lon="-4.2402">
        <ele>9</ele>
        <time>2019-08-12T18:00:08Z</time>
      </trkpt>
      <trkpt lat="47.90182" lon="-4.24016">
        <ele>9</ele>
        <time>2019-08-12T18:00:10Z</time>
      </trkpt>
      <trkpt lat="47.90202" lon="-4.24001">
        <ele>9</ele>
        <time>2019-08-12T18:00:17Z</time>
      </trkpt>
      <trkpt lat="47.9021" lon="-4.23997">
        <ele>10</ele>
        <time>2019-08-12T18:00:20Z</time>
      </trkpt>
      <trkpt lat="47.90215" lon="-4.23995">
        <ele>10</ele>
        <time>2019-08-12T18:00:22Z</time>
      </trkpt>
      <trkpt lat="47.90225" lon="-4.23991">
        <ele>11</ele>
        <time>2019-08-12T18:00:26Z</time>
      </trkpt>
      <trkpt lat="47.90227" lon="-4.23991">
        <ele>11</ele>
        <time>2019-08-12T18:00:27Z</time>
      </trkpt>
      <trkpt lat="47.9023" lon="-4.23992">
        <ele>11</ele>
        <time>2019-08-12T18:00:28Z</time>
      </trkpt>
      <trkpt lat="47.9024" lon="-4.23986">
        <ele>12</ele>
        <time>2019-08-12T18:00:32Z</time>
      </trkpt>
      <trkpt lat="47.90253" lon="-4.2398">
        <ele>11</ele>
        <time>2019-08-12T18:00:38Z</time>
      </trkpt>
      <trkpt lat="47.90266" lon="-4.23975">
        <ele>12</ele>
        <time>2019-08-12T18:00:44Z</time>
      </trkpt>
      <trkpt lat="47.90281" lon="-4.23973">
        <ele>11</ele>
        <time>2019-08-12T18:00:51Z</time>
      </trkpt>
      <trkpt lat="47.90291" lon="-4.23972">
        <ele>11</ele>
        <time>2019-08-12T18:00:57Z</time>
      </trkpt>
      <trkpt lat="47.90296" lon="-4.2397">
        <ele>12</ele>
        <time>2019-08-12T18:01:00Z</time>
      </trkpt>
      <trkpt lat="47.90305" lon="-4.2397">
        <ele>13</ele>
        <time>2019-08-12T18:01:04Z</time>
      </trkpt>
      <trkpt lat="47.9032" lon="-4.23967">
        <ele>11</ele>
        <time>2019-08-12T18:01:08Z</time>
      </trkpt>
      <trkpt lat="47.9033" lon="-4.23966">
        <ele>10</ele>
        <time>2019-08-12T18:01:10Z</time>
      </trkpt>
      <trkpt lat="47.9034" lon="-4.23964">
        <ele>9</ele>
        <time>2019-08-12T18:01:12Z</time>
      </trkpt>
      <trkpt lat="47.90346" lon="-4.23963">
        <ele>9</ele>
        <time>2019-08-12T18:01:13Z</time>
      </trkpt>
      <trkpt lat="47.90362" lon="-4.23957">
        <ele>9</ele>
        <time>2019-08-12T18:01:16Z</time>
      </trkpt>
      <trkpt lat="47.90375" lon="-4.23951">
        <ele>8</ele>
        <time>2019-08-12T18:01:19Z</time>
      </trkpt>
      <trkpt lat="47.90379" lon="-4.23949">
        <ele>7</ele>
        <time>2019-08-12T18:01:20Z</time>
      </trkpt>
      <trkpt lat="47.90396" lon="-4.23939">
        <ele>6</ele>
        <time>2019-08-12T18:01:25Z</time>
      </trkpt>
      <trkpt lat="47.90407" lon="-4.23935">
        <ele>5</ele>
        <time>2019-08-12T18:01:29Z</time>
      </trkpt>
      <trkpt lat="47.9041" lon="-4.23935">
        <ele>5</ele>
        <time>2019-08-12T18:01:30Z</time>
      </trkpt>
      <trkpt lat="47.90433" lon="-4.23931">
        <ele>6</ele>
        <time>2019-08-12T18:01:37Z</time>
      </trkpt>
      <trkpt lat="47.90437" lon="-4.23931">
        <ele>6</ele>
        <time>2019-08-12T18:01:38Z</time>
      </trkpt>
      <trkpt lat="47.90456" lon="-4.23923">
        <ele>6</ele>
        <time>2019-08-12T18:01:44Z</time>
      </trkpt>
      <trkpt lat="47.90473" lon="-4.23923">
        <ele>5</ele>
        <time>2019-08-12T18:01:50Z</time>
      </trkpt>
      <trkpt lat="47.90479" lon="-4.23923">
        <ele>5</ele>
        <time>2019-08-12T18:01:52Z</time>
      </trkpt>
      <trkpt lat="47.9049" lon="-4.23926">
        <ele>5</ele>
        <time>2019-08-12T18:01:55Z</time>
      </trkpt>
      <trkpt lat="47.90508" lon="-4.23933">
        <ele>6</ele>
        <time>2019-08-12T18:02:01Z</time>
      </trkpt>
      <trkpt lat="47.90514" lon="-4.23939">
        <ele>5</ele>
        <time>2019-08-12T18:02:05Z</time>
      </trkpt>
      <trkpt lat="47.90515" lon="-4.23941">
        <ele>4</ele>
        <time>2019-08-12T18:02:06Z</time>
      </trkpt>
      <trkpt lat="47.90517" lon="-4.23944">
        <ele>4</ele>
        <time>2019-08-12T18:02:07Z</time>
      </trkpt>
      <trkpt lat="47.90518" lon="-4.23945">
        <ele>3</ele>
        <time>2019-08-12T18:02:08Z</time>
      </trkpt>
      <trkpt lat="47.9052" lon="-4.23949">
        <ele>2</ele>
        <time>2019-08-12T18:02:10Z</time>
      </trkpt>
      <trkpt lat="47.90523" lon="-4.23954">
        <ele>1</ele>
        <time>2019-08-12T18:02:12Z</time>
      </trkpt>
      <trkpt lat="47.90525" lon="-4.23959">
        <ele>17.1</ele>
        <time>2019-08-12T18:02:14Z</time>
      </trkpt>
      <trkpt lat="47.90526" lon="-4.23965">
        <ele>-1</ele>
        <time>2019-08-12T18:02:16Z</time>
      </trkpt>
      <trkpt lat="47.90528" lon="-4.23976">
        <ele>-2</ele>
        <time>2019-08-12T18:02:19Z</time>
      </trkpt>
      <trkpt lat="47.9053" lon="-4.23985">
        <ele>-3</ele>
        <time>2019-08-12T18:02:21Z</time>
      </trkpt>
      <trkpt lat="47.90531" lon="-4.23988">
        <ele>-4</ele>
        <time>2019-08-12T18:02:22Z</time>
      </trkpt>
      <trkpt lat="47.90538" lon="-4.23997">
        <ele>-5</ele>
        <time>2019-08-12T18:02:25Z</time>
      </trkpt>
      <trkpt lat="47.90541" lon="-4.24003">
        <ele>-5</ele>
        <time>2019-08-12T18:02:27Z</time>
      </trkpt>
      <trkpt lat="47.90545" lon="-4.24007">
        <ele>-6</ele>
        <time>2019-08-12T18:02:28Z</time>
      </trkpt>
      <trkpt lat="47.90554" lon="-4.24019">
        <ele>-5</ele>
        <time>2019-08-12T18:02:31Z</time>
      </trkpt>
      <trkpt lat="47.90556" lon="-4.24023">
        <ele>-4</ele>
        <time>2019-08-12T18:02:32Z</time>
      </trkpt>
      <trkpt lat="47.90559" lon="-4.24029">
        <ele>-3</ele>
        <time>2019-08-12T18:02:34Z</time>
      </trkpt>
      <trkpt lat="47.90563" lon="-4.24036">
        <ele>-2</ele>
        <time>2019-08-12T18:02:36Z</time>
      </trkpt>
      <trkpt lat="47.90567" lon="-4.24042">
        <ele>-1</ele>
        <time>2019-08-12T18:02:38Z</time>
      </trkpt>
      <trkpt lat="47.90578" lon="-4.24057">
        <ele>-3</ele>
        <time>2019-08-12T18:02:44Z</time>
      </trkpt>
      <trkpt lat="47.90584" lon="-4.24066">
        <ele>-4</ele>
        <time>2019-08-12T18:02:47Z</time>
      </trkpt>
      <trkpt lat="47.90586" lon="-4.24069">
        <ele>-6</ele>
        <time>2019-08-12T18:02:49Z</time>
      </trkpt>
      <trkpt lat="47.90588" lon="-4.24073">
        <ele>-8</ele>
        <time>2019-08-12T18:02:51Z</time>
      </trkpt>
      <trkpt lat="47.90591" lon="-4.24077">
        <ele>-10</ele>
        <time>2019-08-12T18:02:53Z</time>
      </trkpt>
      <trkpt lat="47.90593" lon="-4.24079">
        <ele>-10</ele>
        <time>2019-08-12T18:02:54Z</time>
      </trkpt>
      <trkpt lat="47.90595" lon="-4.2408">
        <ele>-11</ele>
        <time>2019-08-12T18:02:55Z</time>
      </trkpt>
      <trkpt lat="47.90599" lon="-4.24083">
        <ele>-12</ele>
        <time>2019-08-12T18:02:57Z</time>
      </trkpt>
      <trkpt lat="47.906" lon="-4.24085">
        <ele>-12</ele>
        <time>2019-08-12T18:02:58Z</time>
      </trkpt>
      <trkpt lat="47.90624" lon="-4.24087">
        <ele>-16</ele>
        <time>2019-08-12T18:03:10Z</time>
      </trkpt>
      <trkpt lat="47.90625" lon="-4.24085">
        <ele>-16</ele>
        <time>2019-08-12T18:03:11Z</time>
      </trkpt>
      <trkpt lat="47.90626" lon="-4.24083">
        <ele>-17</ele>
        <time>2019-08-12T18:03:12Z</time>
      </trkpt>
      <trkpt lat="47.90627" lon="-4.24082">
        <ele>-17</ele>
        <time>2019-08-12T18:03:13Z</time>
      </trkpt>
      <trkpt lat="47.906" lon="-4.23972">
        <ele>-1</ele>
        <time>2019-08-12T18:04:07Z</time>
      </trkpt>
      <trkpt lat="47.90599" lon="-4.2397">
        <ele>-1</ele>
        <time>2019-08-12T18:04:08Z</time>
      </trkpt>
      <trkpt lat="47.90593" lon="-4.23957">
        <ele>-2</ele>
        <time>2019-08-12T18:04:13Z</time>
      </trkpt>
      <trkpt lat="47.90591" lon="-4.23951">
        <ele>-3</ele>
        <time>2019-08-12T18:04:15Z</time>
      </trkpt>
      <trkpt lat="47.9059" lon="-4.23949">
        <ele>-3</ele>
        <time>2019-08-12T18:04:16Z</time>
      </trkpt>
      <trkpt lat="47.90588" lon="-4.23941">
        <ele>-4</ele>
        <time>2019-08-12T18:04:19Z</time>
      </trkpt>
      <trkpt lat="47.90584" lon="-4.23934">
        <ele>-4</ele>
        <time>2019-08-12T18:04:21Z</time>
      </trkpt>
      <trkpt lat="47.9058" lon="-4.23924">
        <ele>-4</ele>
        <time>2019-08-12T18:04:24Z</time>
      </trkpt>
      <trkpt lat="47.90574" lon="-4.23914">
        <ele>-4</ele>
        <time>2019-08-12T18:04:27Z</time>
      </trkpt>
      <trkpt lat="47.90561" lon="-4.23892">
        <ele>-4</ele>
        <time>2019-08-12T18:04:34Z</time>
      </trkpt>
      <trkpt lat="47.90558" lon="-4.23889">
        <ele>-3</ele>
        <time>2019-08-12T18:04:35Z</time>
      </trkpt>
      <trkpt lat="47.90551" lon="-4.23881">
        <ele>-2</ele>
        <time>2019-08-12T18:04:38Z</time>
      </trkpt>
      <trkpt lat="47.90546" lon="-4.23876">
        <ele>-1</ele>
        <time>2019-08-12T18:04:40Z</time>
      </trkpt>
      <trkpt lat="47.90533" lon="-4.23864">
        <ele>-1</ele>
        <time>2019-08-12T18:04:46Z</time>
      </trkpt>
      <trkpt lat="47.9052" lon="-4.23858">
        <ele>16.2</ele>
        <time>2019-08-12T18:04:51Z</time>
      </trkpt>
      <trkpt lat="47.90514" lon="-4.23855">
        <ele>1</ele>
        <time>2019-08-12T18:04:53Z</time>
      </trkpt>
      <trkpt lat="47.90512" lon="-4.23853">
        <ele>1</ele>
        <time>2019-08-12T18:04:54Z</time>
      </trkpt>
      <trkpt lat="47.90499" lon="-4.23848">
        <ele>2</ele>
        <time>2019-08-12T18:04:59Z</time>
      </trkpt>
      <trkpt lat="47.90497" lon="-4.23847">
        <ele>3</ele>
        <time>2019-08-12T18:05:00Z</time>
      </trkpt>
      <trkpt lat="47.90491" lon="-4.23844">
        <ele>3</ele>
        <time>2019-08-12T18:05:02Z</time>
      </trkpt>
      <trkpt lat="47.90483" lon="-4.23839">
        <ele>5</ele>
        <time>2019-08-12T18:05:05Z</time>
      </trkpt>
      <trkpt lat="47.90476" lon="-4.23835">
        <ele>6</ele>
        <time>2019-08-12T18:05:08Z</time>
      </trkpt>
      <trkpt lat="47.90471" lon="-4.23835">
        <ele>7</ele>
        <time>2019-08-12T18:05:11Z</time>
      </trkpt>
      <trkpt lat="47.90458" lon="-4.23838">
        <ele>7</ele>
        <time>2019-08-12T18:05:15Z</time>
      </trkpt>
      <trkpt lat="47.90446" lon="-4.23839">
        <ele>7</ele>
        <time>2019-08-12T18:05:20Z</time>
      </trkpt>
      <trkpt lat="47.9043" lon="-4.23841">
        <ele>7</ele>
        <time>2019-08-12T18:05:25Z</time>
      </trkpt>
      <trkpt lat="47.90417" lon="-4.2384">
        <ele>6</ele>
        <time>2019-08-12T18:05:31Z</time>
      </trkpt>
      <trkpt lat="47.90409" lon="-4.23841">
        <ele>5</ele>
        <time>2019-08-12T18:05:35Z</time>
      </trkpt>
      <trkpt lat="47.90401" lon="-4.23841">
        <ele>5</ele>
        <time>2019-08-12T18:05:38Z</time>
      </trkpt>
      <trkpt lat="47.90387" lon="-4.2384">
        <ele>4</ele>
        <time>2019-08-12T18:05:43Z</time>
      </trkpt>
      <trkpt lat="47.90383" lon="-4.23842">
        <ele>3</ele>
        <time>2019-08-12T18:05:45Z</time>
      </trkpt>
      <trkpt lat="47.90381" lon="-4.23842">
        <ele>3</ele>
        <time>2019-08-12T18:05:46Z</time>
      </trkpt>
      <trkpt lat="47.9037" lon="-4.23844">
        <ele>1</ele>
        <time>2019-08-12T18:05:51Z</time>
      </trkpt>
      <trkpt lat="47.90362" lon="-4.23847">
        <ele>18.1</ele>
        <time>2019-08-12T18:05:55Z</time>
      </trkpt>
      <trkpt lat="47.9036" lon="-4.23848">
        <ele>17.8</ele>
        <time>2019-08-12T18:05:56Z</time>
      </trkpt>
      <trkpt lat="47.90358" lon="-4.23849">
        <ele>17.6</ele>
        <time>2019-08-12T18:05:57Z</time>
      </trkpt>
      <trkpt lat="47.90352" lon="-4.23854">
        <ele>-1</ele>
        <time>2019-08-12T18:06:00Z</time>
      </trkpt>
      <trkpt lat="47.90346" lon="-4.23858">
        <ele>-1</ele>
        <time>2019-08-12T18:06:03Z</time>
      </trkpt>
      <trkpt lat="47.90341" lon="-4.23858">
        <ele>-1</ele>
        <time>2019-08-12T18:06:06Z</time>
      </trkpt>
      <trkpt lat="47.90337" lon="-4.23858">
        <ele>-1</ele>
        <time>2019-08-12T18:06:08Z</time>
      </trkpt>
      <trkpt lat="47.90325" lon="-4.23857">
        <ele>17</ele>
        <time>2019-08-12T18:06:15Z</time>
      </trkpt>
      <trkpt lat="47.90315" lon="-4.23858">
        <ele>17.3</ele>
        <time>2019-08-12T18:06:20Z</time>
      </trkpt>
      <trkpt lat="47.90313" lon="-4.23859">
        <ele>17.3</ele>
        <time>2019-08-12T18:06:21Z</time>
      </trkpt>
      <trkpt lat="47.90302" lon="-4.23862">
        <ele>1</ele>
        <time>2019-08-12T18:06:25Z</time>
      </trkpt>
      <trkpt lat="47.90298" lon="-4.23863">
        <ele>2</ele>
        <time>2019-08-12T18:06:27Z</time>
      </trkpt>
      <trkpt lat="47.90294" lon="-4.23863">
        <ele>3</ele>
        <time>2019-08-12T18:06:29Z</time>
      </trkpt>
      <trkpt lat="47.90292" lon="-4.23863">
        <ele>3</ele>
        <time>2019-08-12T18:06:30Z</time>
      </trkpt>
      <trkpt lat="47.90289" lon="-4.23863">
        <ele>3</ele>
        <time>2019-08-12T18:06:31Z</time>
      </trkpt>
      <trkpt lat="47.90287" lon="-4.23863">
        <ele>4</ele>
        <time>2019-08-12T18:06:32Z</time>
      </trkpt>
      <trkpt lat="47.9028" lon="-4.23865">
        <ele>4</ele>
        <time>2019-08-12T18:06:35Z</time>
      </trkpt>
      <trkpt lat="47.90278" lon="-4.23865">
        <ele>4</ele>
        <time>2019-08-12T18:06:36Z</time>
      </trkpt>
      <trkpt lat="47.90268" lon="-4.23866">
        <ele>5</ele>
        <time>2019-08-12T18:06:41Z</time>
      </trkpt>
      <trkpt lat="47.90262" lon="-4.23867">
        <ele>6</ele>
        <time>2019-08-12T18:06:44Z</time>
      </trkpt>
      <trkpt lat="47.90256" lon="-4.23868">
        <ele>7</ele>
        <time>2019-08-12T18:06:46Z</time>
      </trkpt>
      <trkpt lat="47.9025" lon="-4.2387">
        <ele>8</ele>
        <time>2019-08-12T18:06:48Z</time>
      </trkpt>
      <trkpt lat="47.90244" lon="-4.23872">
        <ele>8</ele>
        <time>2019-08-12T18:06:50Z</time>
      </trkpt>
      <trkpt lat="47.9024" lon="-4.23872">
        <ele>8</ele>
        <time>2019-08-12T18:06:52Z</time>
      </trkpt>
      <trkpt lat="47.90225" lon="-4.23863">
        <ele>7</ele>
        <time>2019-08-12T18:06:58Z</time>
      </trkpt>
      <trkpt lat="47.90214" lon="-4.23853">
        <ele>9</ele>
        <time>2019-08-12T18:07:03Z</time>
      </trkpt>
      <trkpt lat="47.90212" lon="-4.2385">
        <ele>10</ele>
        <time>2019-08-12T18:07:04Z</time>
      </trkpt>
      <trkpt lat="47.90207" lon="-4.23847">
        <ele>11</ele>
        <time>2019-08-12T18:07:06Z</time>
      </trkpt>
      <trkpt lat="47.90196" lon="-4.23843">
        <ele>12</ele>
        <time>2019-08-12T18:07:10Z</time>
      </trkpt>
      <trkpt lat="47.90184" lon="-4.23836">
        <ele>13</ele>
        <time>2019-08-12T18:07:15Z</time>
      </trkpt>
      <trkpt lat="47.90182" lon="-4.23835">
        <ele>14</ele>
        <time>2019-08-12T18:07:16Z</time>
      </trkpt>
      <trkpt lat="47.90175" lon="-4.23833">
        <ele>14</ele>
        <time>2019-08-12T18:07:19Z</time>
      </trkpt>
      <trkpt lat="47.90166" lon="-4.23833">
        <ele>15</ele>
        <time>2019-08-12T18:07:22Z</time>
      </trkpt>
      <trkpt lat="47.90152" lon="-4.23834">
        <ele>15</ele>
        <time>2019-08-12T18:07:28Z</time>
      </trkpt>
      <trkpt lat="47.90149" lon="-4.23834">
        <ele>16</ele>
        <time>2019-08-12T18:07:29Z</time>
      </trkpt>
      <trkpt lat="47.90137" lon="-4.23836">
        <ele>16</ele>
        <time>2019-08-12T18:07:34Z</time>
      </trkpt>
      <trkpt lat="47.9012" lon="-4.23836">
        <ele>16</ele>
        <time>2019-08-12T18:07:40Z</time>
      </trkpt>
      <trkpt lat="47.90117" lon="-4.23837">
        <ele>17</ele>
        <time>2019-08-12T18:07:41Z</time>
      </trkpt>
      <trkpt lat="47.90105" lon="-4.23837">
        <ele>17</ele>
        <time>2019-08-12T18:07:46Z</time>
      </trkpt>
      <trkpt lat="47.90095" lon="-4.2384">
        <ele>18</ele>
        <time>2019-08-12T18:07:50Z</time>
      </trkpt>
      <trkpt lat="47.90088" lon="-4.2384">
        <ele>18</ele>
        <time>2019-08-12T18:07:52Z</time>
      </trkpt>
      <trkpt lat="47.9007" lon="-4.23844">
        <ele>17</ele>
        <time>2019-08-12T18:07:58Z</time>
      </trkpt>
      <trkpt lat="47.90063" lon="-4.23846">
        <ele>17</ele>
        <time>2019-08-12T18:08:00Z</time>
      </trkpt>
      <trkpt lat="47.9005" lon="-4.23849">
        <ele>16</ele>
        <time>2019-08-12T18:08:04Z</time>
      </trkpt>
      <trkpt lat="47.90047" lon="-4.2385">
        <ele>15</ele>
        <time>2019-08-12T18:08:05Z</time>
      </trkpt>
      <trkpt lat="47.90034" lon="-4.23852">
        <ele>15</ele>
        <time>2019-08-12T18:08:09Z</time>
      </trkpt>
      <trkpt lat="47.90012" lon="-4.23854">
        <ele>15</ele>
        <time>2019-08-12T18:08:15Z</time>
      </trkpt>
      <trkpt lat="47.89994" lon="-4.23861">
        <ele>15</ele>
        <time>2019-08-12T18:08:20Z</time>
      </trkpt>
      <trkpt lat="47.89975" lon="-4.23861">
        <ele>15</ele>
        <time>2019-08-12T18:08:25Z</time>
      </trkpt>
      <trkpt lat="47.89962" lon="-4.23863">
        <ele>14</ele>
        <time>2019-08-12T18:08:29Z</time>
      </trkpt>
      <trkpt lat="47.89956" lon="-4.23865">
        <ele>14</ele>
        <time>2019-08-12T18:08:31Z</time>
      </trkpt>
      <trkpt lat="47.89939" lon="-4.23868">
        <ele>14</ele>
        <time>2019-08-12T18:08:36Z</time>
      </trkpt>
      <trkpt lat="47.89916" lon="-4.23874">
        <ele>15</ele>
        <time>2019-08-12T18:08:43Z</time>
      </trkpt>
      <trkpt lat="47.89897" lon="-4.23875">
        <ele>15</ele>
        <time>2019-08-12T18:08:49Z</time>
      </trkpt>
      <trkpt lat="47.89876" lon="-4.23878">
        <ele>14</ele>
        <time>2019-08-12T18:08:54Z</time>
      </trkpt>
      <trkpt lat="47.89864" lon="-4.23881">
        <ele>13</ele>
        <time>2019-08-12T18:08:57Z</time>
      </trkpt>
      <trkpt lat="47.89857" lon="-4.23881">
        <ele>11</ele>
        <time>2019-08-12T18:08:59Z</time>
      </trkpt>
      <trkpt lat="47.89854" lon="-4.2388">
        <ele>11</ele>
        <time>2019-08-12T18:09:00Z</time>
      </trkpt>
      <trkpt lat="47.89851" lon="-4.23879">
        <ele>10</ele>
        <time>2019-08-12T18:09:01Z</time>
      </trkpt>
      <trkpt lat="47.89841" lon="-4.23877">
        <ele>9</ele>
        <time>2019-08-12T18:09:04Z</time>
      </trkpt>
      <trkpt lat="47.89839" lon="-4.23875">
        <ele>9</ele>
        <time>2019-08-12T18:09:05Z</time>
      </trkpt>
      <trkpt lat="47.89824" lon="-4.23874">
        <ele>9</ele>
        <time>2019-08-12T18:09:10Z</time>
      </trkpt>
      <trkpt lat="47.89817" lon="-4.23874">
        <ele>10</ele>
        <time>2019-08-12T18:09:12Z</time>
      </trkpt>
      <trkpt lat="47.89807" lon="-4.23875">
        <ele>12</ele>
        <time>2019-08-12T18:09:15Z</time>
      </trkpt>
      <trkpt lat="47.898" lon="-4.23874">
        <ele>13</ele>
        <time>2019-08-12T18:09:17Z</time>
      </trkpt>
      <trkpt lat="47.89792" lon="-4.23872">
        <ele>14</ele>
        <time>2019-08-12T18:09:19Z</time>
      </trkpt>
      <trkpt lat="47.89781" lon="-4.23869">
        <ele>16</ele>
        <time>2019-08-12T18:09:22Z</time>
      </trkpt>
      <trkpt lat="47.89778" lon="-4.23868">
        <ele>16</ele>
        <time>2019-08-12T18:09:23Z</time>
      </trkpt>
      <trkpt lat="47.89759" lon="-4.23857">
        <ele>16</ele>
        <time>2019-08-12T18:09:29Z</time>
      </trkpt>
      <trkpt lat="47.89754" lon="-4.23852">
        <ele>17</ele>
        <time>2019-08-12T18:09:31Z</time>
      </trkpt>
      <trkpt lat="47.89746" lon="-4.23842">
        <ele>18</ele>
        <time>2019-08-12T18:09:35Z</time>
      </trkpt>
      <trkpt lat="47.89745" lon="-4.23839">
        <ele>18</ele>
        <time>2019-08-12T18:09:36Z</time>
      </trkpt>
      <trkpt lat="47.89736" lon="-4.23819">
        <ele>17</ele>
        <time>2019-08-12T18:09:42Z</time>
      </trkpt>
      <trkpt lat="47.89735" lon="-4.23815">
        <ele>17</ele>
        <time>2019-08-12T18:09:43Z</time>
      </trkpt>
      <trkpt lat="47.8973" lon="-4.23799">
        <ele>17</ele>
        <time>2019-08-12T18:09:47Z</time>
      </trkpt>
      <trkpt lat="47.8973" lon="-4.2377">
        <ele>17</ele>
        <time>2019-08-12T18:09:53Z</time>
      </trkpt>
      <trkpt lat="47.89733" lon="-4.23749">
        <ele>16</ele>
        <time>2019-08-12T18:09:58Z</time>
      </trkpt>
      <trkpt lat="47.89735" lon="-4.2374">
        <ele>15</ele>
        <time>2019-08-12T18:10:00Z</time>
      </trkpt>
      <trkpt lat="47.89736" lon="-4.23733">
        <ele>15</ele>
        <time>2019-08-12T18:10:02Z</time>
      </trkpt>
      <trkpt lat="47.89732" lon="-4.23717">
        <ele>14</ele>
        <time>2019-08-12T18:10:07Z</time>
      </trkpt>
      <trkpt lat="47.89731" lon="-4.23715">
        <ele>13</ele>
        <time>2019-08-12T18:10:08Z</time>
      </trkpt>
      <trkpt lat="47.89725" lon="-4.23708">
        <ele>13</ele>
        <time>2019-08-12T18:10:11Z</time>
      </trkpt>
      <trkpt lat="47.89712" lon="-4.23703">
        <ele>12</ele>
        <time>2019-08-12T18:10:17Z</time>
      </trkpt>
      <trkpt lat="47.8971" lon="-4.23703">
        <ele>12</ele>
        <time>2019-08-12T18:10:18Z</time>
      </trkpt>
      <trkpt lat="47.89701" lon="-4.23704">
        <ele>11</ele>
        <time>2019-08-12T18:10:21Z</time>
      </trkpt>
      <trkpt lat="47.89689" lon="-4.23708">
        <ele>10</ele>
        <time>2019-08-12T18:10:25Z</time>
      </trkpt>
      <trkpt lat="47.89686" lon="-4.23709">
        <ele>10</ele>
        <time>2019-08-12T18:10:26Z</time>
      </trkpt>
      <trkpt lat="47.89672" lon="-4.23721">
        <ele>10</ele>
        <time>2019-08-12T18:10:32Z</time>
      </trkpt>
      <trkpt lat="47.89663" lon="-4.23729">
        <ele>9</ele>
        <time>2019-08-12T18:10:36Z</time>
      </trkpt>
      <trkpt lat="47.89659" lon="-4.23733">
        <ele>9</ele>
        <time>2019-08-12T18:10:38Z</time>
      </trkpt>
      <trkpt lat="47.89645" lon="-4.23743">
        <ele>9</ele>
        <time>2019-08-12T18:10:44Z</time>
      </trkpt>
      <trkpt lat="47.89636" lon="-4.23751">
        <ele>8</ele>
        <time>2019-08-12T18:10:48Z</time>
      </trkpt>
      <trkpt lat="47.89621" lon="-4.23764">
        <ele>7</ele>
        <time>2019-08-12T18:10:54Z</time>
      </trkpt>
      <trkpt lat="47.8961" lon="-4.2377">
        <ele>6</ele>
        <time>2019-08-12T18:10:57Z</time>
      </trkpt>
      <trkpt lat="47.89602" lon="-4.23777">
        <ele>5</ele>
        <time>2019-08-12T18:10:59Z</time>
      </trkpt>
      <trkpt lat="47.896" lon="-4.2378">
        <ele>4</ele>
        <time>2019-08-12T18:11:00Z</time>
      </trkpt>
      <trkpt lat="47.89584" lon="-4.23794">
        <ele>5</ele>
        <time>2019-08-12T18:11:05Z</time>
      </trkpt>
      <trkpt lat="47.89573" lon="-4.23804">
        <ele>5</ele>
        <time>2019-08-12T18:11:09Z</time>
      </trkpt>
      <trkpt lat="47.89561" lon="-4.23813">
        <ele>4</ele>
        <time>2019-08-12T18:11:14Z</time>
      </trkpt>
      <trkpt lat="47.89549" lon="-4.23824">
        <ele>4</ele>
        <time>2019-08-12T18:11:19Z</time>
      </trkpt>
      <trkpt lat="47.89533" lon="-4.23834">
        <ele>6</ele>
        <time>2019-08-12T18:11:25Z</time>
      </trkpt>
      <trkpt lat="47.89516" lon="-4.23845">
        <ele>6</ele>
        <time>2019-08-12T18:11:30Z</time>
      </trkpt>
      <trkpt lat="47.89497" lon="-4.23857">
        <ele>7</ele>
        <time>2019-08-12T18:11:36Z</time>
      </trkpt>
      <trkpt lat="47.89484" lon="-4.23869">
        <ele>8</ele>
        <time>2019-08-12T18:11:41Z</time>
      </trkpt>
      <trkpt lat="47.89482" lon="-4.23871">
        <ele>8</ele>
        <time>2019-08-12T18:11:42Z</time>
      </trkpt>
      <trkpt lat="47.89475" lon="-4.23876">
        <ele>10</ele>
        <time>2019-08-12T18:11:45Z</time>
      </trkpt>
      <trkpt lat="47.89473" lon="-4.23879">
        <ele>10</ele>
        <time>2019-08-12T18:11:46Z</time>
      </trkpt>
      <trkpt lat="47.89454" lon="-4.2389">
        <ele>9</ele>
        <time>2019-08-12T18:11:52Z</time>
      </trkpt>
      <trkpt lat="47.89441" lon="-4.23896">
        <ele>8</ele>
        <time>2019-08-12T18:11:56Z</time>
      </trkpt>
      <trkpt lat="47.89438" lon="-4.23899">
        <ele>7</ele>
        <time>2019-08-12T18:11:58Z</time>
      </trkpt>
      <trkpt lat="47.89427" lon="-4.239">
        <ele>7</ele>
        <time>2019-08-12T18:12:03Z</time>
      </trkpt>
      <trkpt lat="47.89421" lon="-4.23901">
        <ele>6</ele>
        <time>2019-08-12T18:12:05Z</time>
      </trkpt>
      <trkpt lat="47.89412" lon="-4.23905">
        <ele>6</ele>
        <time>2019-08-12T18:12:08Z</time>
      </trkpt>
      <trkpt lat="47.89404" lon="-4.23908">
        <ele>5</ele>
        <time>2019-08-12T18:12:11Z</time>
      </trkpt>
      <trkpt lat="47.89395" lon="-4.23909">
        <ele>4</ele>
        <time>2019-08-12T18:12:14Z</time>
      </trkpt>
      <trkpt lat="47.89392" lon="-4.2391">
        <ele>3</ele>
        <time>2019-08-12T18:12:15Z</time>
      </trkpt>
      <trkpt lat="47.89387" lon="-4.23909">
        <ele>2</ele>
        <time>2019-08-12T18:12:17Z</time>
      </trkpt>
      <trkpt lat="47.89381" lon="-4.23909">
        <ele>1</ele>
        <time>2019-08-12T18:12:19Z</time>
      </trkpt>
      <trkpt lat="47.89375" lon="-4.2391">
        <ele>15</ele>
        <time>2019-08-12T18:12:21Z</time>
      </trkpt>
      <trkpt lat="47.89372" lon="-4.2391">
        <ele>-1</ele>
        <time>2019-08-12T18:12:22Z</time>
      </trkpt>
      <trkpt lat="47.89366" lon="-4.23909">
        <ele>-2</ele>
        <time>2019-08-12T18:12:24Z</time>
      </trkpt>
      <trkpt lat="47.8936" lon="-4.23909">
        <ele>-3</ele>
        <time>2019-08-12T18:12:26Z</time>
      </trkpt>
      <trkpt lat="47.89356" lon="-4.23909">
        <ele>-4</ele>
        <time>2019-08-12T18:12:27Z</time>
      </trkpt>
      <trkpt lat="47.89338" lon="-4.23905">
        <ele>-4</ele>
        <time>2019-08-12T18:12:32Z</time>
      </trkpt>
      <trkpt lat="47.89318" lon="-4.23904">
        <ele>-4</ele>
        <time>2019-08-12T18:12:38Z</time>
      </trkpt>
      <trkpt lat="47.89304" lon="-4.239">
        <ele>-2</ele>
        <time>2019-08-12T18:12:42Z</time>
      </trkpt>
      <trkpt lat="47.89295" lon="-4.239">
        <ele>-1</ele>
        <time>2019-08-12T18:12:45Z</time>
      </trkpt>
      <trkpt lat="47.89286" lon="-4.23901">
        <ele>14.5</ele>
        <time>2019-08-12T18:12:48Z</time>
      </trkpt>
      <trkpt lat="47.89282" lon="-4.239">
        <ele>2</ele>
        <time>2019-08-12T18:12:50Z</time>
      </trkpt>
      <trkpt lat="47.8928" lon="-4.239">
        <ele>2</ele>
        <time>2019-08-12T18:12:51Z</time>
      </trkpt>
      <trkpt lat="47.89278" lon="-4.239">
        <ele>3</ele>
        <time>2019-08-12T18:12:52Z</time>
      </trkpt>
      <trkpt lat="47.89273" lon="-4.239">
        <ele>4</ele>
        <time>2019-08-12T18:12:54Z</time>
      </trkpt>
      <trkpt lat="47.89265" lon="-4.239">
        <ele>5</ele>
        <time>2019-08-12T18:12:57Z</time>
      </trkpt>
      <trkpt lat="47.89263" lon="-4.23899">
        <ele>5</ele>
        <time>2019-08-12T18:12:58Z</time>
      </trkpt>
      <trkpt lat="47.89256" lon="-4.23896">
        <ele>6</ele>
        <time>2019-08-12T18:13:01Z</time>
      </trkpt>
      <trkpt lat="47.89258" lon="-4.23898">
        <ele>9</ele>
        <time>2019-08-12T18:13:36Z</time>
      </trkpt>
      <trkpt lat="47.89261" lon="-4.23899">
        <ele>9</ele>
        <time>2019-08-12T18:13:38Z</time>
      </trkpt>
      <trkpt lat="47.89265" lon="-4.23899">
        <ele>8</ele>
        <time>2019-08-12T18:13:41Z</time>
      </trkpt>
      <trkpt lat="47.89268" lon="-4.23899">
        <ele>7</ele>
        <time>2019-08-12T18:13:43Z</time>
      </trkpt>
      <trkpt lat="47.89266" lon="-4.23899">
        <ele>7</ele>
        <time>2019-08-12T18:15:59Z</time>
      </trkpt>
      <trkpt lat="47.89263" lon="-4.23898">
        <ele>7</ele>
        <time>2019-08-12T18:16:01Z</time>
      </trkpt>
      <trkpt lat="47.89252" lon="-4.23894">
        <ele>9</ele>
        <time>2019-08-12T18:16:08Z</time>
      </trkpt>
      <trkpt lat="47.89245" lon="-4.23889">
        <ele>10</ele>
        <time>2019-08-12T18:16:12Z</time>
      </trkpt>
      <trkpt lat="47.8924" lon="-4.23885">
        <ele>10</ele>
        <time>2019-08-12T18:16:15Z</time>
      </trkpt>
      <trkpt lat="47.89226" lon="-4.23875">
        <ele>10</ele>
        <time>2019-08-12T18:16:22Z</time>
      </trkpt>
      <trkpt lat="47.89214" lon="-4.23867">
        <ele>11</ele>
        <time>2019-08-12T18:16:28Z</time>
      </trkpt>
      <trkpt lat="47.8921" lon="-4.23865">
        <ele>11</ele>
        <time>2019-08-12T18:16:30Z</time>
      </trkpt>
      <trkpt lat="47.89201" lon="-4.23856">
        <ele>11</ele>
        <time>2019-08-12T18:16:34Z</time>
      </trkpt>
      <trkpt lat="47.89194" lon="-4.23848">
        <ele>11</ele>
        <time>2019-08-12T18:16:37Z</time>
      </trkpt>
      <trkpt lat="47.89187" lon="-4.23841">
        <ele>10</ele>
        <time>2019-08-12T18:16:40Z</time>
      </trkpt>
      <trkpt lat="47.8918" lon="-4.23835">
        <ele>11</ele>
        <time>2019-08-12T18:16:43Z</time>
      </trkpt>
      <trkpt lat="47.89174" lon="-4.23826">
        <ele>11</ele>
        <time>2019-08-12T18:16:46Z</time>
      </trkpt>
      <trkpt lat="47.8916" lon="-4.23812">
        <ele>11</ele>
        <time>2019-08-12T18:16:52Z</time>
      </trkpt>
      <trkpt lat="47.89138" lon="-4.23787">
        <ele>12</ele>
        <time>2019-08-12T18:17:01Z</time>
      </trkpt>
      <trkpt lat="47.89122" lon="-4.23771">
        <ele>12</ele>
        <time>2019-08-12T18:17:08Z</time>
      </trkpt>
      <trkpt lat="47.8911" lon="-4.23759">
        <ele>12</ele>
        <time>2019-08-12T18:17:14Z</time>
      </trkpt>
      <trkpt lat="47.89098" lon="-4.23746">
        <ele>13</ele>
        <time>2019-08-12T18:17:20Z</time>
      </trkpt>
      <trkpt lat="47.89086" lon="-4.23733">
        <ele>13</ele>
        <time>2019-08-12T18:17:25Z</time>
      </trkpt>
      <trkpt lat="47.89081" lon="-4.23728">
        <ele>13</ele>
        <time>2019-08-12T18:17:27Z</time>
      </trkpt>
      <trkpt lat="47.89066" lon="-4.2371">
        <ele>13</ele>
        <time>2019-08-12T18:17:33Z</time>
      </trkpt>
      <trkpt lat="47.89051" lon="-4.23694">
        <ele>12</ele>
        <time>2019-08-12T18:17:39Z</time>
      </trkpt>
      <trkpt lat="47.89046" lon="-4.23689">
        <ele>12</ele>
        <time>2019-08-12T18:17:41Z</time>
      </trkpt>
      <trkpt lat="47.89034" lon="-4.23677">
        <ele>12</ele>
        <time>2019-08-12T18:17:46Z</time>
      </trkpt>
      <trkpt lat="47.89013" lon="-4.23658">
        <ele>12</ele>
        <time>2019-08-12T18:17:54Z</time>
      </trkpt>
      <trkpt lat="47.88995" lon="-4.23645">
        <ele>12</ele>
        <time>2019-08-12T18:18:01Z</time>
      </trkpt>
      <trkpt lat="47.88978" lon="-4.23641">
        <ele>11</ele>
        <time>2019-08-12T18:18:07Z</time>
      </trkpt>
      <trkpt lat="47.88973" lon="-4.23642">
        <ele>11</ele>
        <time>2019-08-12T18:18:09Z</time>
      </trkpt>
      <trkpt lat="47.88962" lon="-4.23642">
        <ele>11</ele>
        <time>2019-08-12T18:18:13Z</time>
      </trkpt>
      <trkpt lat="47.88944" lon="-4.23643">
        <ele>10</ele>
        <time>2019-08-12T18:18:19Z</time>
      </trkpt>
      <trkpt lat="47.88935" lon="-4.23642">
        <ele>9</ele>
        <time>2019-08-12T18:18:22Z</time>
      </trkpt>
      <trkpt lat="47.88927" lon="-4.23645">
        <ele>8</ele>
        <time>2019-08-12T18:18:25Z</time>
      </trkpt>
      <trkpt lat="47.88921" lon="-4.23646">
        <ele>8</ele>
        <time>2019-08-12T18:18:27Z</time>
      </trkpt>
      <trkpt lat="47.88908" lon="-4.23648">
        <ele>6</ele>
        <time>2019-08-12T18:18:31Z</time>
      </trkpt>
      <trkpt lat="47.88893" lon="-4.2365">
        <ele>5</ele>
        <time>2019-08-12T18:18:35Z</time>
      </trkpt>
      <trkpt lat="47.88891" lon="-4.23649">
        <ele>5</ele>
        <time>2019-08-12T18:18:36Z</time>
      </trkpt>
      <trkpt lat="47.88887" lon="-4.23651">
        <ele>5</ele>
        <time>2019-08-12T18:18:37Z</time>
      </trkpt>
      <trkpt lat="47.88875" lon="-4.23651">
        <ele>6</ele>
        <time>2019-08-12T18:18:40Z</time>
      </trkpt>
      <trkpt lat="47.88858" lon="-4.2365">
        <ele>5</ele>
        <time>2019-08-12T18:18:45Z</time>
      </trkpt>
      <trkpt lat="47.88844" lon="-4.23648">
        <ele>5</ele>
        <time>2019-08-12T18:18:49Z</time>
      </trkpt>
      <trkpt lat="47.8883" lon="-4.2365">
        <ele>6</ele>
        <time>2019-08-12T18:18:53Z</time>
      </trkpt>
      <trkpt lat="47.88827" lon="-4.2365">
        <ele>6</ele>
        <time>2019-08-12T18:18:54Z</time>
      </trkpt>
      <trkpt lat="47.88818" lon="-4.2365">
        <ele>7</ele>
        <time>2019-08-12T18:18:57Z</time>
      </trkpt>
      <trkpt lat="47.88807" lon="-4.23647">
        <ele>9</ele>
        <time>2019-08-12T18:19:00Z</time>
      </trkpt>
      <trkpt lat="47.88795" lon="-4.23643">
        <ele>10</ele>
        <time>2019-08-12T18:19:03Z</time>
      </trkpt>
      <trkpt lat="47.88781" lon="-4.23639">
        <ele>11</ele>
        <time>2019-08-12T18:19:06Z</time>
      </trkpt>
      <trkpt lat="47.88758" lon="-4.23632">
        <ele>11</ele>
        <time>2019-08-12T18:19:11Z</time>
      </trkpt>
      <trkpt lat="47.8875" lon="-4.23629">
        <ele>11</ele>
        <time>2019-08-12T18:19:13Z</time>
      </trkpt>
      <trkpt lat="47.8874" lon="-4.23628">
        <ele>11</ele>
        <time>2019-08-12T18:19:15Z</time>
      </trkpt>
      <trkpt lat="47.8872" lon="-4.23627">
        <ele>11</ele>
        <time>2019-08-12T18:19:19Z</time>
      </trkpt>
      <trkpt lat="47.8871" lon="-4.23625">
        <ele>11</ele>
        <time>2019-08-12T18:19:21Z</time>
      </trkpt>
      <trkpt lat="47.88706" lon="-4.23621">
        <ele>11</ele>
        <time>2019-08-12T18:19:22Z</time>
      </trkpt>
      <trkpt lat="47.88699" lon="-4.2361">
        <ele>12</ele>
        <time>2019-08-12T18:19:25Z</time>
      </trkpt>
      <trkpt lat="47.88696" lon="-4.23608">
        <ele>13</ele>
        <time>2019-08-12T18:19:26Z</time>
      </trkpt>
      <trkpt lat="47.88681" lon="-4.23599">
        <ele>12</ele>
        <time>2019-08-12T18:19:31Z</time>
      </trkpt>
      <trkpt lat="47.88669" lon="-4.23588">
        <ele>12</ele>
        <time>2019-08-12T18:19:35Z</time>
      </trkpt>
      <trkpt lat="47.88666" lon="-4.23578">
        <ele>12</ele>
        <time>2019-08-12T18:19:37Z</time>
      </trkpt>
      <trkpt lat="47.88664" lon="-4.23564">
        <ele>11</ele>
        <time>2019-08-12T18:19:39Z</time>
      </trkpt>
      <trkpt lat="47.88653" lon="-4.23533">
        <ele>18</ele>
        <time>2019-08-12T18:20:37Z</time>
      </trkpt>
      <trkpt lat="47.8865" lon="-4.23527">
        <ele>19</ele>
        <time>2019-08-12T18:20:40Z</time>
      </trkpt>
      <trkpt lat="47.8865" lon="-4.23526">
        <ele>21</ele>
        <time>2019-08-12T18:23:03Z</time>
      </trkpt>
      <trkpt lat="47.88647" lon="-4.2352">
        <ele>22</ele>
        <time>2019-08-12T18:23:08Z</time>
      </trkpt>
      <trkpt lat="47.88646" lon="-4.23517">
        <ele>22</ele>
        <time>2019-08-12T18:23:10Z</time>
      </trkpt>
      <trkpt lat="47.88645" lon="-4.23516">
        <ele>22</ele>
        <time>2019-08-12T18:23:11Z</time>
      </trkpt>
      <trkpt lat="47.88642" lon="-4.23513">
        <ele>23</ele>
        <time>2019-08-12T18:23:16Z</time>
      </trkpt>
      <trkpt lat="47.88638" lon="-4.23508">
        <ele>23</ele>
        <time>2019-08-12T18:23:26Z</time>
      </trkpt>
      <trkpt lat="47.88637" lon="-4.23507">
        <ele>23</ele>
        <time>2019-08-12T18:23:27Z</time>
      </trkpt>
      <trkpt lat="47.88631" lon="-4.23496">
        <ele>24</ele>
        <time>2019-08-12T18:23:33Z</time>
      </trkpt>
      <trkpt lat="47.88629" lon="-4.23495">
        <ele>25</ele>
        <time>2019-08-12T18:23:34Z</time>
      </trkpt>
      <trkpt lat="47.88624" lon="-4.23486">
        <ele>25</ele>
        <time>2019-08-12T18:23:41Z</time>
      </trkpt>
      <trkpt lat="47.8862" lon="-4.23481">
        <ele>24</ele>
        <time>2019-08-12T18:23:46Z</time>
      </trkpt>
      <trkpt lat="47.88618" lon="-4.23478">
        <ele>24</ele>
        <time>2019-08-12T18:23:49Z</time>
      </trkpt>
      <trkpt lat="47.88612" lon="-4.23471">
        <ele>24</ele>
        <time>2019-08-12T18:23:58Z</time>
      </trkpt>
      <trkpt lat="47.88606" lon="-4.23462">
        <ele>24</ele>
        <time>2019-08-12T18:24:03Z</time>
      </trkpt>
      <trkpt lat="47.88595" lon="-4.23451">
        <ele>23</ele>
        <time>2019-08-12T18:24:08Z</time>
      </trkpt>
      <trkpt lat="47.88591" lon="-4.23449">
        <ele>23</ele>
        <time>2019-08-12T18:24:09Z</time>
      </trkpt>
      <trkpt lat="47.88582" lon="-4.23439">
        <ele>22</ele>
        <time>2019-08-12T18:24:12Z</time>
      </trkpt>
      <trkpt lat="47.88579" lon="-4.23436">
        <ele>21</ele>
        <time>2019-08-12T18:24:13Z</time>
      </trkpt>
      <trkpt lat="47.88576" lon="-4.23434">
        <ele>21</ele>
        <time>2019-08-12T18:24:14Z</time>
      </trkpt>
      <trkpt lat="47.88573" lon="-4.23435">
        <ele>20</ele>
        <time>2019-08-12T18:24:15Z</time>
      </trkpt>
      <trkpt lat="47.88571" lon="-4.23437">
        <ele>20</ele>
        <time>2019-08-12T18:24:16Z</time>
      </trkpt>
      <trkpt lat="47.88569" lon="-4.2344">
        <ele>20</ele>
        <time>2019-08-12T18:24:17Z</time>
      </trkpt>
      <trkpt lat="47.88563" lon="-4.23452">
        <ele>19</ele>
        <time>2019-08-12T18:24:20Z</time>
      </trkpt>
      <trkpt lat="47.88561" lon="-4.23455">
        <ele>19</ele>
        <time>2019-08-12T18:24:21Z</time>
      </trkpt>
      <trkpt lat="47.88558" lon="-4.23465">
        <ele>16</ele>
        <time>2019-08-12T18:24:25Z</time>
      </trkpt>
      <trkpt lat="47.88556" lon="-4.23471">
        <ele>15</ele>
        <time>2019-08-12T18:24:27Z</time>
      </trkpt>
      <trkpt lat="47.88553" lon="-4.23475">
        <ele>14</ele>
        <time>2019-08-12T18:24:29Z</time>
      </trkpt>
      <trkpt lat="47.88552" lon="-4.23477">
        <ele>13</ele>
        <time>2019-08-12T18:24:30Z</time>
      </trkpt>
      <trkpt lat="47.88543" lon="-4.23493">
        <ele>10</ele>
        <time>2019-08-12T18:24:37Z</time>
      </trkpt>
      <trkpt lat="47.88539" lon="-4.23503">
        <ele>9</ele>
        <time>2019-08-12T18:24:39Z</time>
      </trkpt>
      <trkpt lat="47.88537" lon="-4.23506">
        <ele>8</ele>
        <time>2019-08-12T18:24:40Z</time>
      </trkpt>
      <trkpt lat="47.88532" lon="-4.23522">
        <ele>8</ele>
        <time>2019-08-12T18:26:20Z</time>
      </trkpt>
      <trkpt lat="47.88532" lon="-4.23526">
        <ele>8</ele>
        <time>2019-08-12T18:26:21Z</time>
      </trkpt>
      <trkpt lat="47.88525" lon="-4.23557">
        <ele>8</ele>
        <time>2019-08-12T18:26:28Z</time>
      </trkpt>
      <trkpt lat="47.88515" lon="-4.23607">
        <ele>8</ele>
        <time>2019-08-12T18:26:38Z</time>
      </trkpt>
      <trkpt lat="47.88512" lon="-4.23622">
        <ele>7</ele>
        <time>2019-08-12T18:26:42Z</time>
      </trkpt>
      <trkpt lat="47.88511" lon="-4.23634">
        <ele>7</ele>
        <time>2019-08-12T18:26:46Z</time>
      </trkpt>
      <trkpt lat="47.88513" lon="-4.23637">
        <ele>7</ele>
        <time>2019-08-12T18:26:47Z</time>
      </trkpt>
      <trkpt lat="47.88518" lon="-4.2364">
        <ele>7</ele>
        <time>2019-08-12T18:26:50Z</time>
      </trkpt>
      <trkpt lat="47.8852" lon="-4.23641">
        <ele>7</ele>
        <time>2019-08-12T18:26:51Z</time>
      </trkpt>
      <trkpt lat="47.88523" lon="-4.23643">
        <ele>8</ele>
        <time>2019-08-12T18:26:53Z</time>
      </trkpt>
      <trkpt lat="47.88531" lon="-4.2365">
        <ele>7</ele>
        <time>2019-08-12T18:26:57Z</time>
      </trkpt>
      <trkpt lat="47.88532" lon="-4.23653">
        <ele>7</ele>
        <time>2019-08-12T18:26:58Z</time>
      </trkpt>
      <trkpt lat="47.88532" lon="-4.23667">
        <ele>8</ele>
        <time>2019-08-12T18:27:03Z</time>
      </trkpt>
      <trkpt lat="47.88533" lon="-4.23678">
        <ele>7</ele>
        <time>2019-08-12T18:27:07Z</time>
      </trkpt>
      <trkpt lat="47.88535" lon="-4.23684">
        <ele>7</ele>
        <time>2019-08-12T18:27:09Z</time>
      </trkpt>
      <trkpt lat="47.88541" lon="-4.23703">
        <ele>7</ele>
        <time>2019-08-12T18:27:14Z</time>
      </trkpt>
      <trkpt lat="47.88547" lon="-4.23718">
        <ele>8</ele>
        <time>2019-08-12T18:27:19Z</time>
      </trkpt>
      <trkpt lat="47.88549" lon="-4.23718">
        <ele>9</ele>
        <time>2019-08-12T18:27:21Z</time>
      </trkpt>
      <trkpt lat="47.88551" lon="-4.23715">
        <ele>10</ele>
        <time>2019-08-12T18:27:23Z</time>
      </trkpt>
      <trkpt lat="47.88552" lon="-4.2371">
        <ele>12</ele>
        <time>2019-08-12T18:27:25Z</time>
      </trkpt>
      <trkpt lat="47.88556" lon="-4.23706">
        <ele>12</ele>
        <time>2019-08-12T18:27:27Z</time>
      </trkpt>
      <trkpt lat="47.88558" lon="-4.23706">
        <ele>12</ele>
        <time>2019-08-12T18:27:28Z</time>
      </trkpt>
    </trkseg>
  </trk>
</gpx>